Darstellungsparameter: Aktuell verwendete Einstellungen:
Skalierung der Graphiken ... ?
xyx+y,   Skalierungsfaktor:      Skalierung: Modus: x, Faktor: 1
Darstellungszeitraum ... ?
Vom - - bis: - -   Zeitraum: 12.07.2011 - 25.07.2011
Min/Max/Avg-Anzeige ... ?
Zeige MMA aktuell
Zeige MMA Monat
Zeige MMA alles
Zeige --A aktuell
Zeige --A Monat
Zeige --A alles
Keine MMA-Anzeige
MMA:
Average (ber die Originaldaten)
MMA-Basis: 12.07.2011 - 25.07.2011
Quicknavigation für Darstellung... ?
Tage:      1T, 2T, 3T, 5T -1T -2T -3T -5T +1T +2T +3T +5T
Wochen: 1W, 2W, 3W -1W -2W -3W +1W +2W +3W
Monate: 1M, 3M, 6M -1M -3M -6M +1M +3M +6M
Jahre:    1J, 3J, 5J, 10J -1J -3J -5J -10J +1J +3J +5J +10J
Nutze für die Darstellung ... ?
Originaldaten oder Mittelwerte auf ...
Stundenbasis Tagesbasis Wochenbasis
Monatsbasis Jahresbasis      Datenbasis: Original-Daten
Darstellen als:
Statistik (Auto) Statistik J:M      Darstellung:
Zur Graphik,    zurück zur Übersicht aller Sensoren.
 
Tabellarische Datenbersicht: ?
 
Sensor: Nr:Datum:Temp:Abs-Feuchte:Windchill:Wind:
Aussen-T/F 1 12-07-2011 00:07:02 16 C 8.31 g/m*3 16 C 0 km/h
2 12-07-2011 00:19:02 15.8 C 8.48 g/m*3 15.8 C 0 km/h
3 12-07-2011 00:31:02 15.6 C 8.64 g/m*3 15.6 C 0 km/h
4 12-07-2011 00:43:02 15.2 C 8.57 g/m*3 15.2 C 0 km/h
5 12-07-2011 00:55:03 15.1 C 8.64 g/m*3 15.1 C 0 km/h
6 12-07-2011 01:07:03 15 C 8.72 g/m*3 15 C 0 km/h
7 12-07-2011 01:19:03 14.5 C 8.46 g/m*3 14.5 C 0 km/h
8 12-07-2011 01:31:03 14.3 C 8.6 g/m*3 14.3 C 0 km/h
9 12-07-2011 01:43:03 14.2 C 8.67 g/m*3 14.2 C 0 km/h
10 12-07-2011 01:55:03 14.2 C 8.79 g/m*3 14.2 C 0 km/h
11 12-07-2011 02:07:03 13.8 C 8.7 g/m*3 13.8 C 0 km/h
12 12-07-2011 02:19:03 13.5 C 8.54 g/m*3 13.5 C 0 km/h
13 12-07-2011 02:31:03 13.4 C 8.72 g/m*3 13.4 C 0 km/h
14 12-07-2011 02:43:03 13.3 C 8.66 g/m*3 13.3 C 0 km/h
15 12-07-2011 02:55:03 13.2 C 8.61 g/m*3 13.2 C 0 km/h
16 12-07-2011 03:07:03 13 C 8.62 g/m*3 13 C 0 km/h
17 12-07-2011 03:19:03 12.8 C 8.62 g/m*3 12.8 C 0 km/h
18 12-07-2011 03:31:03 12.7 C 8.57 g/m*3 12.7 C 0 km/h
19 12-07-2011 03:43:03 12.5 C 8.58 g/m*3 12.5 C 0 km/h
20 12-07-2011 03:55:03 12.3 C 8.47 g/m*3 12.3 C 0 km/h
21 12-07-2011 04:07:03 12.1 C 8.47 g/m*3 12.1 C 0 km/h
22 12-07-2011 04:19:03 12 C 8.42 g/m*3 12 C 0 km/h
23 12-07-2011 04:31:03 12.1 C 8.69 g/m*3 12.1 C 0 km/h
24 12-07-2011 04:43:03 12 C 8.74 g/m*3 12 C 0 km/h
25 12-07-2011 04:55:04 11.9 C 8.79 g/m*3 11.9 C 0 km/h
Sensor: Nr:Datum:Temp:Abs-Feuchte:Windchill:Wind:
Aussen-T/F 26 12-07-2011 05:07:04 11.8 C 8.74 g/m*3 11.8 C 0 km/h
27 12-07-2011 05:19:04 11.8 C 8.84 g/m*3 11.8 C 0 km/h
28 12-07-2011 05:31:04 11.6 C 8.73 g/m*3 11.6 C 0 km/h
29 12-07-2011 05:43:04 11.7 C 8.79 g/m*3 11.7 C 0 km/h
30 12-07-2011 05:55:04 11.6 C 8.83 g/m*3 11.6 C 0 km/h
31 12-07-2011 06:07:04 11.7 C 8.89 g/m*3 11.7 C 0 km/h
32 12-07-2011 06:19:04 11.8 C 9.05 g/m*3 11.8 C 0 km/h
33 12-07-2011 06:31:04 11.9 C 9.11 g/m*3 11.9 C 0 km/h
34 12-07-2011 06:43:04 12 C 9.06 g/m*3 12 C 0 km/h
35 12-07-2011 06:55:02 12.1 C 9.12 g/m*3 12.1 C 0 km/h
36 12-07-2011 07:07:01 12.2 C 9.17 g/m*3 12.2 C 0 km/h
37 12-07-2011 07:19:02 12.4 C 9.4 g/m*3 12.4 C 0 km/h
38 12-07-2011 07:31:01 12.6 C 9.51 g/m*3 12.6 C 0 km/h
39 12-07-2011 07:43:01 12.9 C 9.69 g/m*3 12.9 C 0 km/h
40 12-07-2011 07:55:02 13.4 C 9.88 g/m*3 13.4 C 0 km/h
41 12-07-2011 08:07:02 13.8 C 10.13 g/m*3 13.8 C 0 km/h
42 12-07-2011 08:19:02 14.4 C 10.38 g/m*3 14.4 C 0 km/h
43 12-07-2011 08:31:03 15.2 C 10.38 g/m*3 15.2 C 0 km/h
44 12-07-2011 08:43:03 16.2 C 10.62 g/m*3 16.2 C 0 km/h
45 12-07-2011 08:55:02 16.8 C 10.44 g/m*3 16.8 C 0 km/h
46 12-07-2011 09:07:01 17.5 C 10.29 g/m*3 17.5 C 0 km/h
47 12-07-2011 09:19:02 18.3 C 10.16 g/m*3 18.3 C 0 km/h
48 12-07-2011 09:31:02 19.9 C 10.48 g/m*3 19.9 C 0 km/h
49 12-07-2011 09:43:02 20.4 C 9.38 g/m*3 20.4 C 0 km/h
50 12-07-2011 09:55:02 22 C 9.12 g/m*3 22 C 0 km/h
Sensor: Nr:Datum:Temp:Abs-Feuchte:Windchill:Wind:
Aussen-T/F 51 12-07-2011 10:07:01 22.8 C 9.35 g/m*3 22.8 C 0 km/h
52 12-07-2011 10:19:01 23.9 C 8.87 g/m*3 23.9 C 0 km/h
53 12-07-2011 10:31:02 25 C 8.52 g/m*3 25 C 0 km/h
54 12-07-2011 10:43:02 26.1 C 8.32 g/m*3 26.1 C 0 km/h
55 12-07-2011 10:55:02 27.6 C 8.25 g/m*3 27.6 C 0 km/h
56 12-07-2011 11:07:02 27.5 C 7.94 g/m*3 27.5 C 0 km/h
57 12-07-2011 11:19:02 28.1 C 7.66 g/m*3 28.1 C 0 km/h
58 12-07-2011 11:31:03 27.2 C 7.29 g/m*3 27.2 C 0 km/h
59 12-07-2011 11:43:03 27.6 C 7.18 g/m*3 27.6 C 0 km/h
60 12-07-2011 11:55:02 27.2 C 7.03 g/m*3 27.2 C 0 km/h
61 12-07-2011 12:07:01 27.3 C 6.8 g/m*3 27.3 C 0 km/h
62 12-07-2011 12:19:02 27.6 C 6.92 g/m*3 27.6 C 0 km/h
63 12-07-2011 12:31:02 27.7 C 7.22 g/m*3 27.7 C 0 km/h
64 12-07-2011 12:43:02 27.9 C 7.03 g/m*3 27.9 C 0 km/h
65 12-07-2011 12:55:02 28.1 C 6.84 g/m*3 28.1 C 0 km/h
66 12-07-2011 13:07:03 28.4 C 6.95 g/m*3 28.4 C 0 km/h
67 12-07-2011 13:19:02 29.2 C 6.97 g/m*3 29.2 C 0 km/h
68 12-07-2011 13:31:03 29.9 C 6.64 g/m*3 29.9 C 0 km/h
69 12-07-2011 13:43:03 32.3 C 6.86 g/m*3 32.3 C 0 km/h
70 12-07-2011 13:55:02 32.6 C 6.97 g/m*3 32.6 C 0 km/h
71 12-07-2011 14:07:02 33.4 C 7.27 g/m*3 33.4 C 0 km/h
72 12-07-2011 14:19:01 32.3 C 6.86 g/m*3 32.3 C 0 km/h
73 12-07-2011 14:31:02 32 C 6.75 g/m*3 32 C 0 km/h
74 12-07-2011 14:43:02 32.5 C 6.93 g/m*3 32.5 C 0 km/h
75 12-07-2011 14:55:02 31.9 C 6.72 g/m*3 31.9 C 0 km/h
Sensor: Nr:Datum:Temp:Abs-Feuchte:Windchill:Wind:
Aussen-T/F 76 12-07-2011 15:07:02 31 C 6.4 g/m*3 31 C 0 km/h
77 12-07-2011 15:19:02 29.8 C 6.6 g/m*3 29.8 C 0 km/h
78 12-07-2011 15:31:02 30 C 6.37 g/m*3 30 C 0 km/h
79 12-07-2011 15:43:02 29.5 C 7.38 g/m*3 29.5 C 0 km/h
80 12-07-2011 15:55:02 29.5 C 7.38 g/m*3 29.5 C 0 km/h
81 12-07-2011 16:07:02 29.1 C 7.51 g/m*3 29.1 C 0 km/h
82 12-07-2011 16:19:03 28.7 C 7.35 g/m*3 28.7 C 0 km/h
83 12-07-2011 16:31:02 29 C 7.47 g/m*3 29 C 0 km/h
84 12-07-2011 16:43:02 29.6 C 7.72 g/m*3 29.6 C 0 km/h
85 12-07-2011 16:55:02 27.5 C 8.47 g/m*3 27.5 C 0 km/h
86 12-07-2011 17:07:02 25 C 9.21 g/m*3 25 C 0 km/h
87 12-07-2011 17:19:02 21.8 C 11.9 g/m*3 21.8 C 0 km/h
88 12-07-2011 17:31:02 19.8 C 12.81 g/m*3 19.8 C 0 km/h
89 12-07-2011 17:43:02 19.4 C 13.35 g/m*3 19.4 C 0 km/h
90 12-07-2011 17:55:02 19.3 C 13.27 g/m*3 19.3 C 0 km/h
91 12-07-2011 18:07:02 19.7 C 13.25 g/m*3 19.7 C 0 km/h
92 12-07-2011 18:19:02 20.1 C 12.86 g/m*3 20.1 C 0 km/h
93 12-07-2011 18:31:02 20.7 C 13.14 g/m*3 20.7 C 0 km/h
94 12-07-2011 18:43:02 20.3 C 13.37 g/m*3 20.3 C 0 km/h
95 12-07-2011 18:55:02 20.3 C 13.37 g/m*3 20.3 C 0 km/h
96 12-07-2011 19:07:01 21.1 C 13.63 g/m*3 21.1 C 0 km/h
97 12-07-2011 19:19:02 21.1 C 13.27 g/m*3 21.1 C 0 km/h
98 12-07-2011 19:31:02 21.2 C 13.71 g/m*3 21.2 C 0 km/h
99 12-07-2011 19:43:02 21.8 C 13.43 g/m*3 21.8 C 0 km/h
100 12-07-2011 19:55:01 21.4 C 12.94 g/m*3 21.4 C 0 km/h
Sensor: Nr:Datum:Temp:Abs-Feuchte:Windchill:Wind:
Aussen-T/F 101 12-07-2011 20:07:02 21 C 12.82 g/m*3 21 C 0 km/h
102 12-07-2011 20:19:01 21.5 C 12.26 g/m*3 21.5 C 0 km/h
103 12-07-2011 20:31:02 21.2 C 12.05 g/m*3 21.2 C 0 km/h
104 12-07-2011 20:43:02 20.6 C 12.17 g/m*3 20.6 C 0 km/h
105 12-07-2011 20:55:02 20.7 C 11.88 g/m*3 20.7 C 0 km/h
106 12-07-2011 21:07:02 19.7 C 12.4 g/m*3 19.7 C 0 km/h
107 12-07-2011 21:19:02 19 C 12.39 g/m*3 19 C 0 km/h
108 12-07-2011 21:31:02 18.6 C 12.57 g/m*3 18.6 C 0 km/h
109 12-07-2011 21:43:02 18.1 C 12.52 g/m*3 18.1 C 0 km/h
110 12-07-2011 21:55:02 17.7 C 12.52 g/m*3 17.7 C 0 km/h
111 12-07-2011 22:07:02 17.4 C 12.45 g/m*3 17.4 C 0 km/h
112 12-07-2011 22:19:02 17.4 C 12.45 g/m*3 17.4 C 0 km/h
113 12-07-2011 22:31:02 17.2 C 12.45 g/m*3 17.2 C 0 km/h
114 12-07-2011 22:43:02 17.2 C 12.45 g/m*3 17.2 C 0 km/h
115 12-07-2011 22:56:04 17.2 C 12.59 g/m*3 17.2 C 0 km/h
116 12-07-2011 23:08:04 17.2 C 12.59 g/m*3 17.2 C 0 km/h
117 12-07-2011 23:20:04 16.8 C 12.44 g/m*3 16.8 C 0 km/h
118 12-07-2011 23:32:04 16.8 C 12.44 g/m*3 16.8 C 0 km/h
119 12-07-2011 23:44:04 16.7 C 12.36 g/m*3 16.7 C 0 km/h
120 12-07-2011 23:56:04 16.6 C 12.29 g/m*3 16.6 C 0 km/h
121 13-07-2011 00:08:04 16.9 C 12.66 g/m*3 16.9 C 0 km/h
122 13-07-2011 00:20:04 16.6 C 12.43 g/m*3 16.6 C 0 km/h
123 13-07-2011 00:32:04 16.5 C 12.36 g/m*3 16.5 C 0 km/h
124 13-07-2011 00:44:04 16.4 C 12.28 g/m*3 16.4 C 0 km/h
125 13-07-2011 00:56:05 16.5 C 12.36 g/m*3 16.5 C 0 km/h
Sensor: Nr:Datum:Temp:Abs-Feuchte:Windchill:Wind:
Aussen-T/F 126 13-07-2011 01:08:05 16.1 C 12.06 g/m*3 16.1 C 0 km/h
127 13-07-2011 01:20:05 16.3 C 12.21 g/m*3 16.3 C 0 km/h
128 13-07-2011 01:32:05 16.1 C 12.06 g/m*3 16.1 C 0 km/h
129 13-07-2011 01:44:05 16 C 11.99 g/m*3 16 C 0 km/h
130 13-07-2011 01:56:05 16.2 C 12.14 g/m*3 16.2 C 0 km/h
131 13-07-2011 02:08:05 15.8 C 11.98 g/m*3 15.8 C 0 km/h
132 13-07-2011 02:20:05 15.8 C 11.98 g/m*3 15.8 C 0 km/h
133 13-07-2011 02:32:05 15.7 C 11.91 g/m*3 15.7 C 0 km/h
134 13-07-2011 02:44:05 15.8 C 11.98 g/m*3 15.8 C 0 km/h
135 13-07-2011 02:56:05 15.5 C 11.76 g/m*3 15.5 C 0 km/h
136 13-07-2011 03:08:05 15.5 C 11.76 g/m*3 15.5 C 0 km/h
137 13-07-2011 03:20:05 15.5 C 11.76 g/m*3 15.5 C 0 km/h
138 13-07-2011 03:32:05 15.4 C 11.69 g/m*3 15.4 C 0 km/h
139 13-07-2011 03:44:05 15.4 C 11.69 g/m*3 15.4 C 0 km/h
140 13-07-2011 03:56:05 15.2 C 11.55 g/m*3 15.2 C 0 km/h
141 13-07-2011 04:08:05 15.1 C 11.48 g/m*3 15.1 C 0 km/h
142 13-07-2011 04:20:05 15.1 C 11.48 g/m*3 15.1 C 0 km/h
143 13-07-2011 04:32:05 15.1 C 11.48 g/m*3 15.1 C 0 km/h
144 13-07-2011 04:44:05 15 C 11.41 g/m*3 15 C 0 km/h
145 13-07-2011 04:56:05 15.3 C 11.62 g/m*3 15.3 C 0 km/h
146 13-07-2011 05:08:06 15.5 C 11.76 g/m*3 15.5 C 0 km/h
147 13-07-2011 05:20:06 16 C 12.13 g/m*3 16 C 0 km/h
148 13-07-2011 05:32:06 16 C 12.13 g/m*3 16 C 0 km/h
149 13-07-2011 05:44:06 16.1 C 12.2 g/m*3 16.1 C 0 km/h
150 13-07-2011 05:56:06 16.2 C 12.27 g/m*3 16.2 C 0 km/h
Sensor: Nr:Datum:Temp:Abs-Feuchte:Windchill:Wind:
Aussen-T/F 151 13-07-2011 06:08:06 16.3 C 12.35 g/m*3 16.3 C 0 km/h
152 13-07-2011 06:20:06 16.5 C 12.64 g/m*3 16.5 C 0 km/h
153 13-07-2011 06:32:06 16.6 C 12.71 g/m*3 16.6 C 0 km/h
154 13-07-2011 06:44:06 16.6 C 12.71 g/m*3 16.6 C 0 km/h
155 13-07-2011 06:56:06 16.9 C 12.94 g/m*3 16.9 C 0 km/h
156 13-07-2011 07:08:06 16.8 C 12.87 g/m*3 16.8 C 0 km/h
157 13-07-2011 07:20:03 16.8 C 12.87 g/m*3 16.8 C 0 km/h
158 13-07-2011 07:32:03 16.8 C 12.87 g/m*3 16.8 C 0 km/h
159 13-07-2011 07:44:03 17 C 12.88 g/m*3 17 C 0 km/h
160 13-07-2011 07:56:02 17 C 12.88 g/m*3 17 C 0 km/h
161 13-07-2011 08:08:02 17.1 C 12.96 g/m*3 17.1 C 0 km/h
162 13-07-2011 08:20:02 17.1 C 12.81 g/m*3 17.1 C 0 km/h
163 13-07-2011 08:32:02 16.9 C 12.66 g/m*3 16.9 C 0 km/h
164 13-07-2011 08:44:02 16.8 C 12.44 g/m*3 16.8 C 0 km/h
165 13-07-2011 08:56:02 16.8 C 12.15 g/m*3 16.8 C 0 km/h
166 13-07-2011 09:08:01 17 C 12.01 g/m*3 17 C 0 km/h
167 13-07-2011 09:20:02 17 C 11.87 g/m*3 17 C 0 km/h
168 13-07-2011 09:32:01 17 C 11.58 g/m*3 17 C 0 km/h
169 13-07-2011 09:44:01 16.9 C 11.51 g/m*3 16.9 C 0 km/h
170 13-07-2011 09:56:02 16.7 C 11.23 g/m*3 16.7 C 0 km/h
171 13-07-2011 10:08:02 16.6 C 10.88 g/m*3 16.6 C 0 km/h
172 13-07-2011 10:20:02 16.5 C 10.67 g/m*3 16.5 C 0 km/h
173 13-07-2011 10:32:02 16.7 C 10.66 g/m*3 16.7 C 0 km/h
174 13-07-2011 10:44:02 16.9 C 10.79 g/m*3 16.9 C 0 km/h
175 13-07-2011 10:56:02 16.9 C 10.79 g/m*3 16.9 C 0 km/h
Sensor: Nr:Datum:Temp:Abs-Feuchte:Windchill:Wind:
Aussen-T/F 176 13-07-2011 11:08:02 17 C 10.56 g/m*3 17 C 0 km/h
177 13-07-2011 11:20:02 17 C 10.27 g/m*3 17 C 0 km/h
178 13-07-2011 11:32:02 17.1 C 10.04 g/m*3 17.1 C 0 km/h
179 13-07-2011 11:44:02 17 C 9.84 g/m*3 17 C 0 km/h
180 13-07-2011 11:56:02 16.8 C 10.15 g/m*3 16.8 C 0 km/h
181 13-07-2011 12:08:02 17.2 C 9.67 g/m*3 17.2 C 0 km/h
182 13-07-2011 12:20:03 17.8 C 9.56 g/m*3 17.8 C 0 km/h
183 13-07-2011 12:32:02 18.2 C 9.48 g/m*3 18.2 C 0 km/h
184 13-07-2011 12:44:02 19 C 9.29 g/m*3 19 C 0 km/h
185 13-07-2011 12:56:02 18.8 C 9.18 g/m*3 18.8 C 0 km/h
186 13-07-2011 13:08:02 19.3 C 8.96 g/m*3 19.3 C 0 km/h
187 13-07-2011 13:20:02 19 C 8.64 g/m*3 19 C 0 km/h
188 13-07-2011 13:32:02 19.4 C 9.01 g/m*3 19.4 C 0 km/h
189 13-07-2011 13:44:02 18.8 C 9.02 g/m*3 18.8 C 0 km/h
190 13-07-2011 13:56:02 18.5 C 8.86 g/m*3 18.5 C 0 km/h
191 13-07-2011 14:08:02 18.8 C 8.86 g/m*3 18.8 C 0 km/h
192 13-07-2011 14:20:01 18.6 C 9.07 g/m*3 18.6 C 0 km/h
193 13-07-2011 14:32:02 18 C 9.22 g/m*3 18 C 0 km/h
194 13-07-2011 14:44:02 17.2 C 9.67 g/m*3 17.2 C 0 km/h
195 13-07-2011 14:56:02 16.9 C 9.64 g/m*3 16.9 C 0 km/h
196 13-07-2011 15:08:02 16.8 C 9.72 g/m*3 16.8 C 0 km/h
197 13-07-2011 15:20:02 16.9 C 9.92 g/m*3 16.9 C 0 km/h
198 13-07-2011 15:32:02 17.4 C 9.48 g/m*3 17.4 C 0 km/h
199 13-07-2011 15:44:02 17.6 C 9.3 g/m*3 17.6 C 0 km/h
200 13-07-2011 15:56:01 17.2 C 9.08 g/m*3 17.2 C 0 km/h
Sensor: Nr:Datum:Temp:Abs-Feuchte:Windchill:Wind:
Aussen-T/F 201 13-07-2011 16:08:02 17 C 8.83 g/m*3 17 C 0 km/h
202 13-07-2011 16:20:02 16.9 C 9.06 g/m*3 16.9 C 0 km/h
203 13-07-2011 16:32:02 16.6 C 9.46 g/m*3 16.6 C 0 km/h
204 13-07-2011 16:44:02 16.2 C 9.52 g/m*3 16.2 C 0 km/h
205 13-07-2011 16:56:02 15.9 C 9.62 g/m*3 15.9 C 0 km/h
206 13-07-2011 17:08:01 15.5 C 9.52 g/m*3 15.5 C 0 km/h
207 13-07-2011 17:20:02 15.3 C 9.53 g/m*3 15.3 C 0 km/h
208 13-07-2011 17:32:01 15.2 C 9.73 g/m*3 15.2 C 0 km/h
209 13-07-2011 17:44:01 15 C 9.75 g/m*3 15 C 0 km/h
210 13-07-2011 17:56:02 14.8 C 9.63 g/m*3 14.8 C 0 km/h
211 13-07-2011 18:08:01 14.8 C 9.63 g/m*3 14.8 C 0 km/h
212 13-07-2011 18:20:01 14.8 C 9.88 g/m*3 14.8 C 0 km/h
213 13-07-2011 18:32:02 14.5 C 9.7 g/m*3 14.5 C 0 km/h
214 13-07-2011 18:44:02 14.4 C 9.77 g/m*3 14.4 C 0 km/h
215 13-07-2011 18:56:02 14.5 C 9.7 g/m*3 14.5 C 0 km/h
216 13-07-2011 19:08:02 14.8 C 9.88 g/m*3 14.8 C 0 km/h
217 13-07-2011 19:20:02 14.8 C 9.63 g/m*3 14.8 C 0 km/h
218 13-07-2011 19:32:02 14.9 C 9.81 g/m*3 14.9 C 0 km/h
219 13-07-2011 19:44:02 14.9 C 9.69 g/m*3 14.9 C 0 km/h
220 13-07-2011 19:56:02 14.5 C 9.58 g/m*3 14.5 C 0 km/h
221 13-07-2011 20:08:02 14.5 C 9.58 g/m*3 14.5 C 0 km/h
222 13-07-2011 20:20:01 14.5 C 9.33 g/m*3 14.5 C 0 km/h
223 13-07-2011 20:32:04 14.5 C 9.08 g/m*3 14.5 C 0 km/h
224 13-07-2011 20:44:04 14.4 C 9.15 g/m*3 14.4 C 0 km/h
225 13-07-2011 20:56:02 14.4 C 9.15 g/m*3 14.4 C 0 km/h
Sensor: Nr:Datum:Temp:Abs-Feuchte:Windchill:Wind:
Aussen-T/F 226 13-07-2011 21:08:01 13.9 C 9.11 g/m*3 13.9 C 0 km/h
227 13-07-2011 21:20:02 13.4 C 9.07 g/m*3 13.4 C 0 km/h
228 13-07-2011 21:32:02 13.3 C 9.13 g/m*3 13.3 C 0 km/h
229 13-07-2011 21:44:02 13.2 C 9.19 g/m*3 13.2 C 0 km/h
230 13-07-2011 21:57:02 13.1 C 9.24 g/m*3 13.1 C 0 km/h
231 13-07-2011 22:09:02 13.1 C 9.36 g/m*3 13.1 C 0 km/h
232 13-07-2011 22:21:02 13 C 9.41 g/m*3 13 C 0 km/h
233 13-07-2011 22:33:02 13.1 C 9.59 g/m*3 13.1 C 0 km/h
234 13-07-2011 22:45:02 13.3 C 9.59 g/m*3 13.3 C 0 km/h
235 13-07-2011 22:57:02 13.2 C 9.3 g/m*3 13.2 C 0 km/h
236 13-07-2011 23:09:02 13.3 C 9.01 g/m*3 13.3 C 0 km/h
237 13-07-2011 23:21:02 13.4 C 8.72 g/m*3 13.4 C 0 km/h
238 13-07-2011 23:33:02 13.3 C 8.9 g/m*3 13.3 C 0 km/h
239 13-07-2011 23:45:02 13.4 C 9.07 g/m*3 13.4 C 0 km/h
240 13-07-2011 23:57:02 13.5 C 8.89 g/m*3 13.5 C 0 km/h
241 14-07-2011 00:09:02 13.6 C 8.71 g/m*3 13.6 C 0 km/h
242 14-07-2011 00:21:02 13.4 C 8.6 g/m*3 13.4 C 0 km/h
243 14-07-2011 00:33:02 13.4 C 8.72 g/m*3 13.4 C 0 km/h
244 14-07-2011 00:45:02 13.3 C 8.78 g/m*3 13.3 C 0 km/h
245 14-07-2011 00:57:02 13.4 C 8.83 g/m*3 13.4 C 0 km/h
246 14-07-2011 01:09:02 13.3 C 9.01 g/m*3 13.3 C 0 km/h
247 14-07-2011 01:21:02 13.4 C 8.83 g/m*3 13.4 C 0 km/h
248 14-07-2011 01:33:03 13.7 C 8.53 g/m*3 13.7 C 0 km/h
249 14-07-2011 01:45:03 13.7 C 8.41 g/m*3 13.7 C 0 km/h
250 14-07-2011 01:57:03 13.3 C 8.09 g/m*3 13.3 C 0 km/h
Sensor: Nr:Datum:Temp:Abs-Feuchte:Windchill:Wind:
Aussen-T/F 251 14-07-2011 02:09:03 13.5 C 8.07 g/m*3 13.5 C 0 km/h
252 14-07-2011 02:21:03 13.6 C 7.89 g/m*3 13.6 C 0 km/h
253 14-07-2011 02:33:03 12.9 C 8 g/m*3 12.9 C 0 km/h
254 14-07-2011 02:45:03 12.8 C 8.18 g/m*3 12.8 C 0 km/h
255 14-07-2011 02:57:03 13 C 8.17 g/m*3 13 C 0 km/h
256 14-07-2011 03:09:03 13.4 C 7.9 g/m*3 13.4 C 0 km/h
257 14-07-2011 03:21:03 13.4 C 7.79 g/m*3 13.4 C 0 km/h
258 14-07-2011 03:33:03 13.4 C 7.67 g/m*3 13.4 C 0 km/h
259 14-07-2011 03:45:03 13.3 C 7.74 g/m*3 13.3 C 0 km/h
260 14-07-2011 03:57:03 13.3 C 7.86 g/m*3 13.3 C 0 km/h
261 14-07-2011 04:09:03 13.5 C 7.72 g/m*3 13.5 C 0 km/h
262 14-07-2011 04:21:03 13.4 C 7.56 g/m*3 13.4 C 0 km/h
263 14-07-2011 04:33:04 13.1 C 7.65 g/m*3 13.1 C 0 km/h
264 14-07-2011 04:45:04 13.1 C 7.53 g/m*3 13.1 C 0 km/h
265 14-07-2011 04:57:04 13.1 C 7.65 g/m*3 13.1 C 0 km/h
266 14-07-2011 05:09:04 13 C 7.6 g/m*3 13 C 0 km/h
267 14-07-2011 05:21:04 12.8 C 7.73 g/m*3 12.8 C 0 km/h
268 14-07-2011 05:33:04 12.8 C 7.73 g/m*3 12.8 C 0 km/h
269 14-07-2011 05:45:04 12.7 C 7.68 g/m*3 12.7 C 0 km/h
270 14-07-2011 05:57:04 12.7 C 7.79 g/m*3 12.7 C 0 km/h
271 14-07-2011 06:09:04 12.7 C 7.79 g/m*3 12.7 C 0 km/h
272 14-07-2011 06:21:04 13.2 C 7.69 g/m*3 13.2 C 0 km/h
273 14-07-2011 06:33:04 13.5 C 7.49 g/m*3 13.5 C 0 km/h
274 14-07-2011 06:45:04 13.6 C 7.41 g/m*3 13.6 C 0 km/h
275 14-07-2011 06:57:04 13.4 C 7.44 g/m*3 13.4 C 0 km/h
Sensor: Nr:Datum:Temp:Abs-Feuchte:Windchill:Wind:
Aussen-T/F 276 14-07-2011 07:09:02 13.8 C 7.63 g/m*3 13.8 C 0 km/h
277 14-07-2011 07:21:01 13.7 C 7.58 g/m*3 13.7 C 0 km/h
278 14-07-2011 07:33:02 13.4 C 7.56 g/m*3 13.4 C 0 km/h
279 14-07-2011 07:45:01 13.4 C 7.56 g/m*3 13.4 C 0 km/h
280 14-07-2011 07:57:01 13.8 C 7.63 g/m*3 13.8 C 0 km/h
281 14-07-2011 08:09:02 13.6 C 7.53 g/m*3 13.6 C 0 km/h
282 14-07-2011 08:21:02 14.3 C 7.49 g/m*3 14.3 C 0 km/h
283 14-07-2011 08:33:02 14.7 C 7.18 g/m*3 14.7 C 0 km/h
284 14-07-2011 08:45:02 15.1 C 7.22 g/m*3 15.1 C 0 km/h
285 14-07-2011 08:57:02 14.9 C 7.26 g/m*3 14.9 C 0 km/h
286 14-07-2011 09:09:01 15.1 C 7.1 g/m*3 15.1 C 0 km/h
287 14-07-2011 09:21:02 16 C 7.08 g/m*3 16 C 0 km/h
288 14-07-2011 09:33:01 15.8 C 6.6 g/m*3 15.8 C 0 km/h
289 14-07-2011 09:45:02 16.1 C 6.03 g/m*3 16.1 C 0 km/h
290 14-07-2011 09:57:02 15.9 C 5.55 g/m*3 15.9 C 0 km/h
291 14-07-2011 10:09:01 16.4 C 5.86 g/m*3 16.4 C 0 km/h
292 14-07-2011 10:21:01 16.4 C 5.72 g/m*3 16.4 C 0 km/h
293 14-07-2011 10:33:01 16.6 C 5.79 g/m*3 16.6 C 0 km/h
294 14-07-2011 10:45:02 16.1 C 5.76 g/m*3 16.1 C 0 km/h
295 14-07-2011 10:57:02 16.6 C 5.93 g/m*3 16.6 C 0 km/h
296 14-07-2011 11:09:02 17.5 C 5.67 g/m*3 17.5 C 0 km/h
297 14-07-2011 11:21:02 17.2 C 5.86 g/m*3 17.2 C 0 km/h
298 14-07-2011 11:33:02 17.4 C 5.78 g/m*3 17.4 C 0 km/h
299 14-07-2011 11:45:02 17.4 C 5.93 g/m*3 17.4 C 0 km/h
300 14-07-2011 11:57:02 17.6 C 6 g/m*3 17.6 C 0 km/h
Sensor: Nr:Datum:Temp:Abs-Feuchte:Windchill:Wind:
Aussen-T/F 301 14-07-2011 12:09:01 17.6 C 5.85 g/m*3 17.6 C 0 km/h
302 14-07-2011 12:21:01 17.8 C 5.92 g/m*3 17.8 C 0 km/h
303 14-07-2011 12:33:02 17.9 C 5.65 g/m*3 17.9 C 0 km/h
304 14-07-2011 12:45:02 18.9 C 5.67 g/m*3 18.9 C 0 km/h
305 14-07-2011 12:57:02 17.7 C 5.58 g/m*3 17.7 C 0 km/h
306 14-07-2011 13:09:02 18.3 C 5.47 g/m*3 18.3 C 0 km/h
307 14-07-2011 13:21:01 17.7 C 5.58 g/m*3 17.7 C 0 km/h
308 14-07-2011 13:33:02 17.8 C 5.92 g/m*3 17.8 C 0 km/h
309 14-07-2011 13:45:02 17.5 C 5.81 g/m*3 17.5 C 0 km/h
310 14-07-2011 13:57:02 17.5 C 5.96 g/m*3 17.5 C 0 km/h
311 14-07-2011 14:09:02 18.2 C 5.6 g/m*3 18.2 C 0 km/h
312 14-07-2011 14:21:01 18.9 C 5.51 g/m*3 18.9 C 0 km/h
313 14-07-2011 14:33:02 21.9 C 5.79 g/m*3 21.9 C 0 km/h
314 14-07-2011 14:45:01 19.6 C 5.4 g/m*3 19.6 C 0 km/h
315 14-07-2011 14:57:01 18.9 C 5.51 g/m*3 18.9 C 0 km/h
316 14-07-2011 15:09:02 22 C 5.82 g/m*3 22 C 0 km/h
317 14-07-2011 15:21:02 20.8 C 5.07 g/m*3 20.8 C 0 km/h
318 14-07-2011 15:33:02 20.9 C 5.65 g/m*3 20.9 C 0 km/h
319 14-07-2011 15:45:02 20.8 C 5.98 g/m*3 20.8 C 0 km/h
320 14-07-2011 15:57:02 19.5 C 5.87 g/m*3 19.5 C 0 km/h
321 14-07-2011 16:09:02 20.5 C 5.52 g/m*3 20.5 C 0 km/h
322 14-07-2011 16:21:02 18.8 C 5.8 g/m*3 18.8 C 0 km/h
323 14-07-2011 16:33:01 18.5 C 5.85 g/m*3 18.5 C 0 km/h
324 14-07-2011 16:45:02 18.5 C 6.01 g/m*3 18.5 C 0 km/h
325 14-07-2011 16:57:02 18.2 C 5.91 g/m*3 18.2 C 0 km/h
Sensor: Nr:Datum:Temp:Abs-Feuchte:Windchill:Wind:
Aussen-T/F 326 14-07-2011 17:09:01 18.6 C 6.37 g/m*3 18.6 C 0 km/h
327 14-07-2011 17:21:01 19.1 C 6.39 g/m*3 19.1 C 0 km/h
328 14-07-2011 17:33:02 17.6 C 6.45 g/m*3 17.6 C 0 km/h
329 14-07-2011 17:45:02 16.9 C 6.47 g/m*3 16.9 C 0 km/h
330 14-07-2011 17:57:02 17.4 C 6.37 g/m*3 17.4 C 0 km/h
331 14-07-2011 18:09:01 17.4 C 6.08 g/m*3 17.4 C 0 km/h
332 14-07-2011 18:21:02 17.5 C 6.26 g/m*3 17.5 C 0 km/h
333 14-07-2011 18:33:02 17.5 C 6.26 g/m*3 17.5 C 0 km/h
334 14-07-2011 18:45:01 17.8 C 6.07 g/m*3 17.8 C 0 km/h
335 14-07-2011 18:57:01 17.6 C 6.15 g/m*3 17.6 C 0 km/h
336 14-07-2011 19:09:02 17.1 C 6.55 g/m*3 17.1 C 0 km/h
337 14-07-2011 19:21:01 16.7 C 6.54 g/m*3 16.7 C 0 km/h
338 14-07-2011 19:33:02 16.7 C 6.54 g/m*3 16.7 C 0 km/h
339 14-07-2011 19:45:01 17 C 6.37 g/m*3 17 C 0 km/h
340 14-07-2011 19:57:01 16.8 C 6.29 g/m*3 16.8 C 0 km/h
341 14-07-2011 20:09:02 16.6 C 6.22 g/m*3 16.6 C 0 km/h
342 14-07-2011 20:21:01 16.1 C 6.17 g/m*3 16.1 C 0 km/h
343 14-07-2011 20:33:02 16 C 6.27 g/m*3 16 C 0 km/h
344 14-07-2011 20:45:01 15.8 C 6.46 g/m*3 15.8 C 0 km/h
345 14-07-2011 20:57:01 15.5 C 6.48 g/m*3 15.5 C 0 km/h
346 14-07-2011 21:09:02 15.2 C 6.62 g/m*3 15.2 C 0 km/h
347 14-07-2011 21:21:01 15.1 C 6.58 g/m*3 15.1 C 0 km/h
348 14-07-2011 21:33:02 15 C 6.67 g/m*3 15 C 0 km/h
349 14-07-2011 21:45:01 15.1 C 6.45 g/m*3 15.1 C 0 km/h
350 14-07-2011 21:57:01 15 C 6.41 g/m*3 15 C 0 km/h
Sensor: Nr:Datum:Temp:Abs-Feuchte:Windchill:Wind:
Aussen-T/F 351 14-07-2011 22:09:02 14.8 C 6.59 g/m*3 14.8 C 0 km/h
352 14-07-2011 22:21:02 14.6 C 6.63 g/m*3 14.6 C 0 km/h
353 14-07-2011 22:33:02 14.2 C 6.72 g/m*3 14.2 C 0 km/h
354 14-07-2011 22:46:03 14.1 C 6.8 g/m*3 14.1 C 0 km/h
355 14-07-2011 22:58:03 13.8 C 6.79 g/m*3 13.8 C 0 km/h
356 14-07-2011 23:10:03 13.8 C 6.79 g/m*3 13.8 C 0 km/h
357 14-07-2011 23:22:03 13.8 C 6.91 g/m*3 13.8 C 0 km/h
358 14-07-2011 23:34:03 13.8 C 6.91 g/m*3 13.8 C 0 km/h
359 14-07-2011 23:46:03 13.8 C 6.79 g/m*3 13.8 C 0 km/h
360 14-07-2011 23:58:03 13.5 C 6.9 g/m*3 13.5 C 0 km/h
361 15-07-2011 00:10:03 13.7 C 7.1 g/m*3 13.7 C 0 km/h
362 15-07-2011 00:22:03 13.6 C 7.06 g/m*3 13.6 C 0 km/h
363 15-07-2011 00:34:03 13.4 C 6.97 g/m*3 13.4 C 0 km/h
364 15-07-2011 00:46:03 13.5 C 6.9 g/m*3 13.5 C 0 km/h
365 15-07-2011 00:58:03 13.4 C 6.86 g/m*3 13.4 C 0 km/h
366 15-07-2011 01:10:03 13.5 C 6.9 g/m*3 13.5 C 0 km/h
367 15-07-2011 01:22:03 13.5 C 6.78 g/m*3 13.5 C 0 km/h
368 15-07-2011 01:34:03 13.5 C 6.78 g/m*3 13.5 C 0 km/h
369 15-07-2011 01:46:03 13.4 C 6.74 g/m*3 13.4 C 0 km/h
370 15-07-2011 01:58:04 13.4 C 6.74 g/m*3 13.4 C 0 km/h
371 15-07-2011 02:10:04 13.4 C 6.86 g/m*3 13.4 C 0 km/h
372 15-07-2011 02:22:04 13.4 C 6.86 g/m*3 13.4 C 0 km/h
373 15-07-2011 02:34:04 13.4 C 6.86 g/m*3 13.4 C 0 km/h
374 15-07-2011 02:46:04 13.5 C 6.78 g/m*3 13.5 C 0 km/h
375 15-07-2011 02:58:04 13.4 C 6.86 g/m*3 13.4 C 0 km/h
Sensor: Nr:Datum:Temp:Abs-Feuchte:Windchill:Wind:
Aussen-T/F 376 15-07-2011 03:10:04 13.5 C 6.9 g/m*3 13.5 C 0 km/h
377 15-07-2011 03:22:04 13.1 C 6.62 g/m*3 13.1 C 0 km/h
378 15-07-2011 03:34:04 13.6 C 6.83 g/m*3 13.6 C 0 km/h
379 15-07-2011 03:46:04 13.4 C 6.86 g/m*3 13.4 C 0 km/h
380 15-07-2011 03:58:04 13.3 C 6.82 g/m*3 13.3 C 0 km/h
381 15-07-2011 04:10:04 13.3 C 6.82 g/m*3 13.3 C 0 km/h
382 15-07-2011 04:22:04 13.5 C 6.78 g/m*3 13.5 C 0 km/h
383 15-07-2011 04:34:04 13.5 C 6.78 g/m*3 13.5 C 0 km/h
384 15-07-2011 04:46:04 13.6 C 6.71 g/m*3 13.6 C 0 km/h
385 15-07-2011 04:58:04 13.6 C 6.83 g/m*3 13.6 C 0 km/h
386 15-07-2011 05:10:04 13.4 C 6.97 g/m*3 13.4 C 0 km/h
387 15-07-2011 05:22:04 13.4 C 7.09 g/m*3 13.4 C 0 km/h
388 15-07-2011 05:34:04 13.4 C 6.97 g/m*3 13.4 C 0 km/h
389 15-07-2011 05:46:04 13.5 C 7.13 g/m*3 13.5 C 0 km/h
390 15-07-2011 05:58:04 13.3 C 7.16 g/m*3 13.3 C 0 km/h
391 15-07-2011 06:10:04 13.1 C 7.19 g/m*3 13.1 C 0 km/h
392 15-07-2011 06:22:04 13.4 C 7.21 g/m*3 13.4 C 0 km/h
393 15-07-2011 06:34:05 13.5 C 7.13 g/m*3 13.5 C 0 km/h
394 15-07-2011 06:46:05 13.7 C 7.1 g/m*3 13.7 C 0 km/h
395 15-07-2011 06:58:05 13.7 C 7.1 g/m*3 13.7 C 0 km/h
396 15-07-2011 07:10:05 13.7 C 7.1 g/m*3 13.7 C 0 km/h
397 15-07-2011 07:22:05 13.9 C 7.07 g/m*3 13.9 C 0 km/h
398 15-07-2011 07:34:03 14.2 C 7.08 g/m*3 14.2 C 0 km/h
399 15-07-2011 07:46:02 14.2 C 6.96 g/m*3 14.2 C 0 km/h
400 15-07-2011 07:58:02 14.4 C 7.05 g/m*3 14.4 C 0 km/h
Sensor: Nr:Datum:Temp:Abs-Feuchte:Windchill:Wind:
Aussen-T/F 401 15-07-2011 08:10:02 14.5 C 7.09 g/m*3 14.5 C 0 km/h
402 15-07-2011 08:22:02 14.7 C 7.18 g/m*3 14.7 C 0 km/h
403 15-07-2011 08:34:02 14.9 C 7.14 g/m*3 14.9 C 0 km/h
404 15-07-2011 08:46:01 15.4 C 7.09 g/m*3 15.4 C 0 km/h
405 15-07-2011 08:58:01 15.1 C 7.1 g/m*3 15.1 C 0 km/h
406 15-07-2011 09:10:01 15 C 7.18 g/m*3 15 C 0 km/h
407 15-07-2011 09:22:01 15.1 C 7.22 g/m*3 15.1 C 0 km/h
408 15-07-2011 09:34:02 15.4 C 7.23 g/m*3 15.4 C 0 km/h
409 15-07-2011 09:46:02 15.6 C 7.31 g/m*3 15.6 C 0 km/h
410 15-07-2011 09:58:02 16.9 C 7.05 g/m*3 16.9 C 0 km/h
411 15-07-2011 10:10:02 17.7 C 6.79 g/m*3 17.7 C 0 km/h
412 15-07-2011 10:22:02 18.2 C 6.37 g/m*3 18.2 C 0 km/h
413 15-07-2011 10:34:03 18.9 C 6.8 g/m*3 18.9 C 0 km/h
414 15-07-2011 10:46:02 19.3 C 5.97 g/m*3 19.3 C 0 km/h
415 15-07-2011 10:58:02 19.5 C 6.04 g/m*3 19.5 C 0 km/h
416 15-07-2011 11:10:02 19.5 C 5.87 g/m*3 19.5 C 0 km/h
417 15-07-2011 11:22:02 19.8 C 5.81 g/m*3 19.8 C 0 km/h
418 15-07-2011 11:34:03 20.8 C 5.79 g/m*3 20.8 C 0 km/h
419 15-07-2011 11:46:02 19.8 C 5.47 g/m*3 19.8 C 0 km/h
420 15-07-2011 11:58:02 19.8 C 5.3 g/m*3 19.8 C 0 km/h
421 15-07-2011 12:10:02 19.8 C 5.3 g/m*3 19.8 C 0 km/h
422 15-07-2011 12:22:01 20.1 C 5.39 g/m*3 20.1 C 0 km/h
423 15-07-2011 12:34:02 20.8 C 5.79 g/m*3 20.8 C 0 km/h
424 15-07-2011 12:46:02 21.3 C 5.59 g/m*3 21.3 C 0 km/h
425 15-07-2011 12:58:02 21.2 C 5.19 g/m*3 21.2 C 0 km/h
Sensor: Nr:Datum:Temp:Abs-Feuchte:Windchill:Wind:
Aussen-T/F 426 15-07-2011 13:10:02 23 C 5.34 g/m*3 23 C 0 km/h
427 15-07-2011 13:22:02 22.8 C 5.08 g/m*3 22.8 C 0 km/h
428 15-07-2011 13:34:02 23.5 C 4.23 g/m*3 23.5 C 0 km/h
429 15-07-2011 13:46:02 24.2 C 5.28 g/m*3 24.2 C 0 km/h
430 15-07-2011 13:58:02 24.8 C 4.55 g/m*3 24.8 C 0 km/h
431 15-07-2011 14:10:03 25.9 C 4.84 g/m*3 25.9 C 0 km/h
432 15-07-2011 14:22:02 27.1 C 5.18 g/m*3 27.1 C 0 km/h
433 15-07-2011 14:34:02 29.3 C 5.84 g/m*3 29.3 C 0 km/h
434 15-07-2011 14:46:03 29 C 5.74 g/m*3 29 C 0 km/h
435 15-07-2011 14:58:03 25.5 C 4.73 g/m*3 25.5 C 0 km/h
436 15-07-2011 15:10:04 28.1 C 5.47 g/m*3 28.1 C 0 km/h
437 15-07-2011 15:22:03 26.3 C 4.95 g/m*3 26.3 C 0 km/h
438 15-07-2011 15:34:03 27.6 C 5.32 g/m*3 27.6 C 0 km/h
439 15-07-2011 15:46:03 26.2 C 4.92 g/m*3 26.2 C 0 km/h
440 15-07-2011 15:58:03 28.7 C 5.65 g/m*3 28.7 C 0 km/h
441 15-07-2011 16:10:03 31.3 C 6.5 g/m*3 31.3 C 0 km/h
442 15-07-2011 16:22:03 28.2 C 5.5 g/m*3 28.2 C 0 km/h
443 15-07-2011 16:34:03 27.4 C 5.26 g/m*3 27.4 C 0 km/h
444 15-07-2011 16:46:02 25.7 C 4.79 g/m*3 25.7 C 0 km/h
445 15-07-2011 16:58:02 28 C 5.44 g/m*3 28 C 0 km/h
446 15-07-2011 17:10:03 27.3 C 5.23 g/m*3 27.3 C 0 km/h
447 15-07-2011 17:22:02 28.5 C 5.59 g/m*3 28.5 C 0 km/h
448 15-07-2011 17:34:03 25.2 C 4.66 g/m*3 25.2 C 0 km/h
449 15-07-2011 17:46:01 25.2 C 4.66 g/m*3 25.2 C 0 km/h
450 15-07-2011 17:58:01 25.6 C 4.76 g/m*3 25.6 C 0 km/h
Sensor: Nr:Datum:Temp:Abs-Feuchte:Windchill:Wind:
Aussen-T/F 451 15-07-2011 18:10:03 26.4 C 4.98 g/m*3 26.4 C 0 km/h
452 15-07-2011 18:22:02 24.3 C 4.43 g/m*3 24.3 C 0 km/h
453 15-07-2011 18:34:02 27.6 C 5.32 g/m*3 27.6 C 0 km/h
454 15-07-2011 18:46:02 29.6 C 5.94 g/m*3 29.6 C 0 km/h
455 15-07-2011 18:58:02 27.1 C 5.18 g/m*3 27.1 C 0 km/h
456 15-07-2011 19:10:05 28 C 5.44 g/m*3 28 C 0 km/h
457 15-07-2011 19:22:02 25.1 C 4.63 g/m*3 25.1 C 0 km/h
458 15-07-2011 19:34:02 23.2 C 4.16 g/m*3 23.2 C 0 km/h
459 15-07-2011 19:46:02 24.2 C 4.4 g/m*3 24.2 C 0 km/h
460 15-07-2011 19:58:02 24 C 4.35 g/m*3 24 C 0 km/h
461 15-07-2011 20:10:02 23 C 4.32 g/m*3 23 C 0 km/h
462 15-07-2011 20:22:02 22 C 4.46 g/m*3 22 C 0 km/h
463 15-07-2011 20:34:02 20.7 C 5.76 g/m*3 20.7 C 0 km/h
464 15-07-2011 20:46:02 19.9 C 6.01 g/m*3 19.9 C 0 km/h
465 15-07-2011 20:58:02 19.7 C 5.94 g/m*3 19.7 C 0 km/h
466 15-07-2011 21:10:03 18.6 C 6.37 g/m*3 18.6 C 0 km/h
467 15-07-2011 21:22:02 17.9 C 6.26 g/m*3 17.9 C 0 km/h
468 15-07-2011 21:34:02 17.4 C 5.78 g/m*3 17.4 C 0 km/h
469 15-07-2011 21:46:02 16.8 C 6 g/m*3 16.8 C 0 km/h
470 15-07-2011 21:58:02 16.2 C 5.79 g/m*3 16.2 C 0 km/h
471 15-07-2011 22:10:02 15.8 C 6.46 g/m*3 15.8 C 0 km/h
472 15-07-2011 22:22:01 15 C 6.03 g/m*3 15 C 0 km/h
473 15-07-2011 22:34:02 14.5 C 6.34 g/m*3 14.5 C 0 km/h
474 15-07-2011 22:47:02 14.1 C 6.19 g/m*3 14.1 C 0 km/h
475 15-07-2011 22:59:02 13.8 C 6.31 g/m*3 13.8 C 0 km/h
Sensor: Nr:Datum:Temp:Abs-Feuchte:Windchill:Wind:
Aussen-T/F 476 15-07-2011 23:11:02 13.4 C 6.04 g/m*3 13.4 C 0 km/h
477 15-07-2011 23:23:02 13.1 C 6.16 g/m*3 13.1 C 0 km/h
478 15-07-2011 23:35:02 13 C 6.24 g/m*3 13 C 0 km/h
479 15-07-2011 23:47:02 12.8 C 6.5 g/m*3 12.8 C 0 km/h
480 15-07-2011 23:59:02 12.4 C 6.34 g/m*3 12.4 C 0 km/h
481 16-07-2011 00:11:02 12.2 C 6.15 g/m*3 12.2 C 0 km/h
482 16-07-2011 00:23:02 12.3 C 6.3 g/m*3 12.3 C 0 km/h
483 16-07-2011 00:35:02 12.1 C 6.22 g/m*3 12.1 C 0 km/h
484 16-07-2011 00:47:02 11.9 C 6.25 g/m*3 11.9 C 0 km/h
485 16-07-2011 00:59:02 11.7 C 6.28 g/m*3 11.7 C 0 km/h
486 16-07-2011 01:11:02 11.3 C 6.32 g/m*3 11.3 C 0 km/h
487 16-07-2011 01:23:02 11.1 C 6.35 g/m*3 11.1 C 0 km/h
488 16-07-2011 01:35:02 10.8 C 6.42 g/m*3 10.8 C 0 km/h
489 16-07-2011 01:47:02 10.7 C 6.48 g/m*3 10.7 C 0 km/h
490 16-07-2011 01:59:02 10.6 C 6.64 g/m*3 10.6 C 0 km/h
491 16-07-2011 02:11:02 10.4 C 6.65 g/m*3 10.4 C 0 km/h
492 16-07-2011 02:23:02 10.3 C 6.7 g/m*3 10.3 C 0 km/h
493 16-07-2011 02:35:02 10.3 C 6.8 g/m*3 10.3 C 0 km/h
494 16-07-2011 02:47:02 10.1 C 6.71 g/m*3 10.1 C 0 km/h
495 16-07-2011 02:59:02 9.9 C 6.82 g/m*3 9.9 C 0 km/h
496 16-07-2011 03:11:03 9.8 C 6.87 g/m*3 9.8 C 0 km/h
497 16-07-2011 03:23:03 9.7 C 6.91 g/m*3 9.7 C 0 km/h
498 16-07-2011 03:35:03 9.7 C 7.01 g/m*3 9.7 C 0 km/h
499 16-07-2011 03:47:03 9.4 C 6.96 g/m*3 9.4 C 0 km/h
500 16-07-2011 03:59:03 9.1 C 6.74 g/m*3 9.1 C 0 km/h
Sensor: Nr:Datum:Temp:Abs-Feuchte:Windchill:Wind:
Aussen-T/F 501 16-07-2011 04:11:03 9 C 6.79 g/m*3 9 C 0 km/h
502 16-07-2011 04:23:03 8.9 C 6.92 g/m*3 8.9 C 0 km/h
503 16-07-2011 04:35:03 8.9 C 7.1 g/m*3 8.9 C 0 km/h
504 16-07-2011 04:47:03 8.7 C 7.01 g/m*3 8.7 C 0 km/h
505 16-07-2011 04:59:03 8.5 C 6.92 g/m*3 8.5 C 0 km/h
506 16-07-2011 05:11:03 8.5 C 7 g/m*3 8.5 C 0 km/h
507 16-07-2011 05:23:03 8.5 C 7.09 g/m*3 8.5 C 0 km/h
508 16-07-2011 05:35:03 8.4 C 7.04 g/m*3 8.4 C 0 km/h
509 16-07-2011 05:47:03 8.2 C 6.95 g/m*3 8.2 C 0 km/h
510 16-07-2011 05:59:03 8.5 C 7.17 g/m*3 8.5 C 0 km/h
511 16-07-2011 06:11:03 8.4 C 7.13 g/m*3 8.4 C 0 km/h
512 16-07-2011 06:23:03 8.5 C 7.17 g/m*3 8.5 C 0 km/h
513 16-07-2011 06:35:03 8.6 C 7.3 g/m*3 8.6 C 0 km/h
514 16-07-2011 06:47:03 8.8 C 7.4 g/m*3 8.8 C 0 km/h
515 16-07-2011 06:59:03 9.1 C 7.45 g/m*3 9.1 C 0 km/h
516 16-07-2011 07:11:03 9.8 C 7.79 g/m*3 9.8 C 0 km/h
517 16-07-2011 07:23:03 11 C 8.31 g/m*3 11 C 0 km/h
518 16-07-2011 07:35:04 11.7 C 8.26 g/m*3 11.7 C 0 km/h
519 16-07-2011 07:47:04 11.9 C 7.94 g/m*3 11.9 C 0 km/h
520 16-07-2011 07:59:04 12.6 C 7.85 g/m*3 12.6 C 0 km/h
521 16-07-2011 08:11:04 13.5 C 7.95 g/m*3 13.5 C 0 km/h
522 16-07-2011 08:23:02 13.7 C 7.7 g/m*3 13.7 C 0 km/h
523 16-07-2011 08:35:02 14.2 C 7.45 g/m*3 14.2 C 0 km/h
524 16-07-2011 08:47:02 14.8 C 7.47 g/m*3 14.8 C 0 km/h
525 16-07-2011 08:59:02 15.8 C 7.54 g/m*3 15.8 C 0 km/h
Sensor: Nr:Datum:Temp:Abs-Feuchte:Windchill:Wind:
Aussen-T/F 526 16-07-2011 09:11:03 16.5 C 7.44 g/m*3 16.5 C 0 km/h
527 16-07-2011 09:23:02 17.1 C 7.57 g/m*3 17.1 C 0 km/h
528 16-07-2011 09:35:02 17.7 C 7.39 g/m*3 17.7 C 0 km/h
529 16-07-2011 09:47:02 18.1 C 7.42 g/m*3 18.1 C 0 km/h
530 16-07-2011 09:59:02 19.7 C 7.3 g/m*3 19.7 C 0 km/h
531 16-07-2011 10:11:01 20.1 C 7.3 g/m*3 20.1 C 0 km/h
532 16-07-2011 10:23:02 20.3 C 8.09 g/m*3 20.3 C 0 km/h
533 16-07-2011 10:35:02 21.4 C 8.06 g/m*3 21.4 C 0 km/h
534 16-07-2011 10:47:01 22.5 C 5.99 g/m*3 22.5 C 0 km/h
535 16-07-2011 10:59:01 23.1 C 5.17 g/m*3 23.1 C 0 km/h
536 16-07-2011 11:11:02 24 C 5 g/m*3 24 C 0 km/h
537 16-07-2011 11:23:01 24.4 C 4.67 g/m*3 24.4 C 0 km/h
538 16-07-2011 11:35:01 25.2 C 4.89 g/m*3 25.2 C 0 km/h
539 16-07-2011 11:47:01 25.6 C 5 g/m*3 25.6 C 0 km/h
540 16-07-2011 11:59:01 26.3 C 4.95 g/m*3 26.3 C 0 km/h
541 16-07-2011 12:11:02 25.7 C 4.79 g/m*3 25.7 C 0 km/h
542 16-07-2011 12:23:01 26.2 C 5.17 g/m*3 26.2 C 0 km/h
543 16-07-2011 12:35:02 25.8 C 5.06 g/m*3 25.8 C 0 km/h
544 16-07-2011 12:47:01 26 C 4.87 g/m*3 26 C 0 km/h
545 16-07-2011 12:59:01 26 C 5.11 g/m*3 26 C 0 km/h
546 16-07-2011 13:11:02 26.7 C 5.06 g/m*3 26.7 C 0 km/h
547 16-07-2011 13:23:02 27.3 C 5.23 g/m*3 27.3 C 0 km/h
548 16-07-2011 13:35:01 27.2 C 5.2 g/m*3 27.2 C 0 km/h
549 16-07-2011 13:47:02 26.3 C 4.95 g/m*3 26.3 C 0 km/h
550 16-07-2011 13:59:02 26.6 C 5.03 g/m*3 26.6 C 0 km/h
Sensor: Nr:Datum:Temp:Abs-Feuchte:Windchill:Wind:
Aussen-T/F 551 16-07-2011 14:11:01 26.6 C 5.03 g/m*3 26.6 C 0 km/h
552 16-07-2011 14:23:02 26.8 C 5.35 g/m*3 26.8 C 0 km/h
553 16-07-2011 14:35:01 27.3 C 5.23 g/m*3 27.3 C 0 km/h
554 16-07-2011 14:47:02 27.4 C 5.26 g/m*3 27.4 C 0 km/h
555 16-07-2011 14:59:02 28.1 C 5.47 g/m*3 28.1 C 0 km/h
556 16-07-2011 15:11:01 27.9 C 5.41 g/m*3 27.9 C 0 km/h
557 16-07-2011 15:23:02 27.5 C 5.29 g/m*3 27.5 C 0 km/h
558 16-07-2011 15:35:01 27.7 C 5.35 g/m*3 27.7 C 0 km/h
559 16-07-2011 15:47:02 27 C 5.15 g/m*3 27 C 0 km/h
560 16-07-2011 15:59:03 27.3 C 5.23 g/m*3 27.3 C 0 km/h
561 16-07-2011 16:11:02 27.7 C 5.35 g/m*3 27.7 C 0 km/h
562 16-07-2011 16:23:02 27.9 C 5.41 g/m*3 27.9 C 0 km/h
563 16-07-2011 16:35:03 28.3 C 5.53 g/m*3 28.3 C 0 km/h
564 16-07-2011 16:47:01 27.5 C 5.29 g/m*3 27.5 C 0 km/h
565 16-07-2011 16:59:01 27.5 C 5.29 g/m*3 27.5 C 0 km/h
566 16-07-2011 17:11:02 26.8 C 5.09 g/m*3 26.8 C 0 km/h
567 16-07-2011 17:23:02 26.9 C 5.63 g/m*3 26.9 C 0 km/h
568 16-07-2011 17:35:02 26.4 C 5.23 g/m*3 26.4 C 0 km/h
569 16-07-2011 17:47:02 26.5 C 5.51 g/m*3 26.5 C 0 km/h
570 16-07-2011 17:59:02 25.5 C 5.68 g/m*3 25.5 C 0 km/h
571 16-07-2011 18:11:02 25.2 C 6.05 g/m*3 25.2 C 0 km/h
572 16-07-2011 18:23:02 25.1 C 5.79 g/m*3 25.1 C 0 km/h
573 16-07-2011 18:35:01 25 C 5.75 g/m*3 25 C 0 km/h
574 16-07-2011 18:47:02 24.9 C 5.72 g/m*3 24.9 C 0 km/h
575 16-07-2011 18:59:02 24.8 C 5.69 g/m*3 24.8 C 0 km/h
Sensor: Nr:Datum:Temp:Abs-Feuchte:Windchill:Wind:
Aussen-T/F 576 16-07-2011 19:11:01 24.5 C 5.82 g/m*3 24.5 C 0 km/h
577 16-07-2011 19:23:01 24.3 C 6.2 g/m*3 24.3 C 0 km/h
578 16-07-2011 19:35:02 24.3 C 5.75 g/m*3 24.3 C 0 km/h
579 16-07-2011 19:47:02 24.1 C 6.13 g/m*3 24.1 C 0 km/h
580 16-07-2011 19:59:02 23.7 C 6.2 g/m*3 23.7 C 0 km/h
581 16-07-2011 20:11:02 23.4 C 6.31 g/m*3 23.4 C 0 km/h
582 16-07-2011 20:23:02 23.2 C 6.24 g/m*3 23.2 C 0 km/h
583 16-07-2011 20:35:02 22.5 C 7.19 g/m*3 22.5 C 0 km/h
584 16-07-2011 20:47:02 21.9 C 7.53 g/m*3 21.9 C 0 km/h
585 16-07-2011 20:59:02 21.4 C 7.5 g/m*3 21.4 C 0 km/h
586 16-07-2011 21:11:02 21.4 C 7.31 g/m*3 21.4 C 0 km/h
587 16-07-2011 21:23:02 21.3 C 7.46 g/m*3 21.3 C 0 km/h
588 16-07-2011 21:35:02 21.3 C 7.27 g/m*3 21.3 C 0 km/h
589 16-07-2011 21:47:01 22.6 C 7.23 g/m*3 22.6 C 0 km/h
590 16-07-2011 21:59:01 22.1 C 7.42 g/m*3 22.1 C 0 km/h
591 16-07-2011 22:11:02 21.5 C 7.73 g/m*3 21.5 C 0 km/h
592 16-07-2011 22:24:02 20.9 C 8.38 g/m*3 20.9 C 0 km/h
593 16-07-2011 22:36:02 20.3 C 8.09 g/m*3 20.3 C 0 km/h
594 16-07-2011 22:48:02 19.8 C 8.54 g/m*3 19.8 C 0 km/h
595 16-07-2011 23:00:02 19.7 C 8.49 g/m*3 19.7 C 0 km/h
596 16-07-2011 23:12:02 19.7 C 8.49 g/m*3 19.7 C 0 km/h
597 16-07-2011 23:24:02 19.8 C 8.37 g/m*3 19.8 C 0 km/h
598 16-07-2011 23:36:02 20.9 C 8.38 g/m*3 20.9 C 0 km/h
599 16-07-2011 23:48:02 19.9 C 9.28 g/m*3 19.9 C 0 km/h
600 17-07-2011 00:00:02 19.1 C 9.67 g/m*3 19.1 C 0 km/h
Sensor: Nr:Datum:Temp:Abs-Feuchte:Windchill:Wind:
Aussen-T/F 601 17-07-2011 00:12:02 18.2 C 10.1 g/m*3 18.2 C 0 km/h
602 17-07-2011 00:24:02 17.4 C 10.67 g/m*3 17.4 C 0 km/h
603 17-07-2011 00:36:02 17 C 11 g/m*3 17 C 0 km/h
604 17-07-2011 00:48:02 16.8 C 11.29 g/m*3 16.8 C 0 km/h
605 17-07-2011 01:00:02 16.6 C 11.44 g/m*3 16.6 C 0 km/h
606 17-07-2011 01:12:02 16.5 C 11.51 g/m*3 16.5 C 0 km/h
607 17-07-2011 01:24:02 16.4 C 11.58 g/m*3 16.4 C 0 km/h
608 17-07-2011 01:36:02 16.4 C 11.72 g/m*3 16.4 C 0 km/h
609 17-07-2011 01:48:02 16.5 C 11.94 g/m*3 16.5 C 0 km/h
610 17-07-2011 02:00:02 16.6 C 12.01 g/m*3 16.6 C 0 km/h
611 17-07-2011 02:12:02 16.5 C 12.08 g/m*3 16.5 C 0 km/h
612 17-07-2011 02:24:02 16.5 C 12.08 g/m*3 16.5 C 0 km/h
613 17-07-2011 02:36:02 16.5 C 12.08 g/m*3 16.5 C 0 km/h
614 17-07-2011 02:48:03 16.5 C 12.22 g/m*3 16.5 C 0 km/h
615 17-07-2011 03:00:03 16.6 C 12.29 g/m*3 16.6 C 0 km/h
616 17-07-2011 03:12:03 16.5 C 12.22 g/m*3 16.5 C 0 km/h
617 17-07-2011 03:24:03 16.5 C 12.36 g/m*3 16.5 C 0 km/h
618 17-07-2011 03:36:03 16.5 C 12.36 g/m*3 16.5 C 0 km/h
619 17-07-2011 03:48:03 16.5 C 12.36 g/m*3 16.5 C 0 km/h
620 17-07-2011 04:00:03 16.5 C 12.36 g/m*3 16.5 C 0 km/h
621 17-07-2011 04:12:03 16.5 C 12.36 g/m*3 16.5 C 0 km/h
622 17-07-2011 04:24:03 16.6 C 12.43 g/m*3 16.6 C 0 km/h
623 17-07-2011 04:36:03 16.8 C 12.58 g/m*3 16.8 C 0 km/h
624 17-07-2011 04:48:03 16.4 C 12.28 g/m*3 16.4 C 0 km/h
625 17-07-2011 05:00:03 16.3 C 12.21 g/m*3 16.3 C 0 km/h
Sensor: Nr:Datum:Temp:Abs-Feuchte:Windchill:Wind:
Aussen-T/F 626 17-07-2011 05:12:03 16.2 C 12.14 g/m*3 16.2 C 0 km/h
627 17-07-2011 05:24:03 16.2 C 12.14 g/m*3 16.2 C 0 km/h
628 17-07-2011 05:36:03 16.2 C 12.14 g/m*3 16.2 C 0 km/h
629 17-07-2011 05:48:03 16.2 C 12.14 g/m*3 16.2 C 0 km/h
630 17-07-2011 06:00:03 16.2 C 12.14 g/m*3 16.2 C 0 km/h
631 17-07-2011 06:12:03 16.2 C 12.27 g/m*3 16.2 C 0 km/h
632 17-07-2011 06:24:03 16.2 C 12.27 g/m*3 16.2 C 0 km/h
633 17-07-2011 06:36:03 16 C 12.13 g/m*3 16 C 0 km/h
634 17-07-2011 06:48:03 16 C 12.13 g/m*3 16 C 0 km/h
635 17-07-2011 07:00:03 16 C 12.13 g/m*3 16 C 0 km/h
636 17-07-2011 07:12:04 15.9 C 12.05 g/m*3 15.9 C 0 km/h
637 17-07-2011 07:24:04 15.9 C 12.05 g/m*3 15.9 C 0 km/h
638 17-07-2011 07:36:04 15.8 C 11.98 g/m*3 15.8 C 0 km/h
639 17-07-2011 07:48:04 15.8 C 11.98 g/m*3 15.8 C 0 km/h
640 17-07-2011 08:00:04 15.9 C 12.05 g/m*3 15.9 C 0 km/h
641 17-07-2011 08:12:04 16 C 12.13 g/m*3 16 C 0 km/h
642 17-07-2011 08:24:02 15.6 C 11.84 g/m*3 15.6 C 0 km/h
643 17-07-2011 08:36:02 15.4 C 11.69 g/m*3 15.4 C 0 km/h
644 17-07-2011 08:48:02 15.3 C 11.49 g/m*3 15.3 C 0 km/h
645 17-07-2011 09:00:02 15.5 C 11.63 g/m*3 15.5 C 0 km/h
646 17-07-2011 09:12:02 15.6 C 11.7 g/m*3 15.6 C 0 km/h
647 17-07-2011 09:24:02 15.4 C 11.43 g/m*3 15.4 C 0 km/h
648 17-07-2011 09:36:02 16.2 C 11.58 g/m*3 16.2 C 0 km/h
649 17-07-2011 09:48:02 16.2 C 11.17 g/m*3 16.2 C 0 km/h
650 17-07-2011 10:00:02 16.8 C 11.29 g/m*3 16.8 C 0 km/h
Sensor: Nr:Datum:Temp:Abs-Feuchte:Windchill:Wind:
Aussen-T/F 651 17-07-2011 10:12:02 17.3 C 10.9 g/m*3 17.3 C 0 km/h
652 17-07-2011 10:24:01 18 C 10.91 g/m*3 18 C 0 km/h
653 17-07-2011 10:36:03 18.2 C 10.72 g/m*3 18.2 C 0 km/h
654 17-07-2011 10:48:02 18 C 10.75 g/m*3 18 C 0 km/h
655 17-07-2011 11:00:02 18.4 C 11.01 g/m*3 18.4 C 0 km/h
656 17-07-2011 11:12:03 19.2 C 10.72 g/m*3 19.2 C 0 km/h
657 17-07-2011 11:24:02 19.4 C 10.84 g/m*3 19.4 C 0 km/h
658 17-07-2011 11:36:02 19.2 C 10.55 g/m*3 19.2 C 0 km/h
659 17-07-2011 11:48:02 20.2 C 10.67 g/m*3 20.2 C 0 km/h
660 17-07-2011 12:00:02 20.5 C 10.14 g/m*3 20.5 C 0 km/h
661 17-07-2011 12:12:03 21.2 C 10.01 g/m*3 21.2 C 0 km/h
662 17-07-2011 12:24:02 20.4 C 9.91 g/m*3 20.4 C 0 km/h
663 17-07-2011 12:36:02 20.2 C 10.14 g/m*3 20.2 C 0 km/h
664 17-07-2011 12:48:01 20.7 C 10.62 g/m*3 20.7 C 0 km/h
665 17-07-2011 13:00:01 21 C 9.53 g/m*3 21 C 0 km/h
666 17-07-2011 13:12:02 20.5 C 9.07 g/m*3 20.5 C 0 km/h
667 17-07-2011 13:24:02 20 C 8.3 g/m*3 20 C 0 km/h
668 17-07-2011 13:36:01 19.4 C 8.01 g/m*3 19.4 C 0 km/h
669 17-07-2011 13:48:02 20.1 C 8.69 g/m*3 20.1 C 0 km/h
670 17-07-2011 14:00:02 20.6 C 8.41 g/m*3 20.6 C 0 km/h
671 17-07-2011 14:12:01 19.5 C 8.22 g/m*3 19.5 C 0 km/h
672 17-07-2011 14:24:02 18.7 C 8.49 g/m*3 18.7 C 0 km/h
673 17-07-2011 14:36:01 18.2 C 8.08 g/m*3 18.2 C 0 km/h
674 17-07-2011 14:48:02 19.2 C 7.75 g/m*3 19.2 C 0 km/h
675 17-07-2011 15:00:02 20 C 7.43 g/m*3 20 C 0 km/h
Sensor: Nr:Datum:Temp:Abs-Feuchte:Windchill:Wind:
Aussen-T/F 676 17-07-2011 15:12:02 19.9 C 7.73 g/m*3 19.9 C 0 km/h
677 17-07-2011 15:24:02 19.9 C 7.56 g/m*3 19.9 C 0 km/h
678 17-07-2011 15:36:03 20.2 C 7.17 g/m*3 20.2 C 0 km/h
679 17-07-2011 15:48:02 21.2 C 7.04 g/m*3 21.2 C 0 km/h
680 17-07-2011 16:00:02 21.2 C 6.86 g/m*3 21.2 C 0 km/h
681 17-07-2011 16:12:01 21 C 6.59 g/m*3 21 C 0 km/h
682 17-07-2011 16:24:02 21.1 C 6.45 g/m*3 21.1 C 0 km/h
683 17-07-2011 16:36:02 20.3 C 6.68 g/m*3 20.3 C 0 km/h
684 17-07-2011 16:48:02 20.4 C 6.72 g/m*3 20.4 C 0 km/h
685 17-07-2011 17:00:02 19.8 C 7 g/m*3 19.8 C 0 km/h
686 17-07-2011 17:12:03 20.4 C 6.55 g/m*3 20.4 C 0 km/h
687 17-07-2011 17:24:02 19.4 C 6.67 g/m*3 19.4 C 0 km/h
688 17-07-2011 17:36:02 19.2 C 6.76 g/m*3 19.2 C 0 km/h
689 17-07-2011 17:48:01 19.3 C 6.63 g/m*3 19.3 C 0 km/h
690 17-07-2011 18:00:01 19.3 C 6.63 g/m*3 19.3 C 0 km/h
691 17-07-2011 18:12:02 20.3 C 6.68 g/m*3 20.3 C 0 km/h
692 17-07-2011 18:24:01 19.4 C 7.01 g/m*3 19.4 C 0 km/h
693 17-07-2011 18:36:02 18.4 C 6.76 g/m*3 18.4 C 0 km/h
694 17-07-2011 18:48:01 18.7 C 7.36 g/m*3 18.7 C 0 km/h
695 17-07-2011 19:00:01 18.4 C 7.24 g/m*3 18.4 C 0 km/h
696 17-07-2011 19:12:02 18.3 C 7.66 g/m*3 18.3 C 0 km/h
697 17-07-2011 19:24:01 18.1 C 7.11 g/m*3 18.1 C 0 km/h
698 17-07-2011 19:36:02 18.4 C 7.71 g/m*3 18.4 C 0 km/h
699 17-07-2011 19:48:01 17.8 C 7.59 g/m*3 17.8 C 0 km/h
700 17-07-2011 20:00:01 17.5 C 8.05 g/m*3 17.5 C 0 km/h
Sensor: Nr:Datum:Temp:Abs-Feuchte:Windchill:Wind:
Aussen-T/F 701 17-07-2011 20:12:02 17.3 C 7.81 g/m*3 17.3 C 0 km/h
702 17-07-2011 20:24:02 18.1 C 7.26 g/m*3 18.1 C 0 km/h
703 17-07-2011 20:36:02 18.4 C 7.24 g/m*3 18.4 C 0 km/h
704 17-07-2011 20:48:01 18.1 C 7.42 g/m*3 18.1 C 0 km/h
705 17-07-2011 21:00:01 17.5 C 8.2 g/m*3 17.5 C 0 km/h
706 17-07-2011 21:12:02 17.1 C 8.73 g/m*3 17.1 C 0 km/h
707 17-07-2011 21:24:02 16.9 C 8.2 g/m*3 16.9 C 0 km/h
708 17-07-2011 21:36:01 16.5 C 8.71 g/m*3 16.5 C 0 km/h
709 17-07-2011 21:48:02 16.4 C 8.23 g/m*3 16.4 C 0 km/h
710 17-07-2011 22:00:02 15.8 C 8.35 g/m*3 15.8 C 0 km/h
711 17-07-2011 22:12:02 15.8 C 8.21 g/m*3 15.8 C 0 km/h
712 17-07-2011 22:25:03 15.9 C 8.13 g/m*3 15.9 C 0 km/h
713 17-07-2011 22:37:03 16 C 7.49 g/m*3 16 C 0 km/h
714 17-07-2011 22:49:03 15.3 C 7.7 g/m*3 15.3 C 0 km/h
715 17-07-2011 23:01:03 14.8 C 7.98 g/m*3 14.8 C 0 km/h
716 17-07-2011 23:13:04 15.4 C 7.49 g/m*3 15.4 C 0 km/h
717 17-07-2011 23:25:04 15.8 C 7.54 g/m*3 15.8 C 0 km/h
718 17-07-2011 23:37:04 15.8 C 7.54 g/m*3 15.8 C 0 km/h
719 17-07-2011 23:49:04 15.6 C 7.71 g/m*3 15.6 C 0 km/h
720 18-07-2011 00:01:04 15.9 C 8.13 g/m*3 15.9 C 0 km/h
721 18-07-2011 00:13:04 15.5 C 8.2 g/m*3 15.5 C 0 km/h
722 18-07-2011 00:25:04 15.6 C 8.38 g/m*3 15.6 C 0 km/h
723 18-07-2011 00:37:04 15.3 C 8.36 g/m*3 15.3 C 0 km/h
724 18-07-2011 00:49:04 15.1 C 8.51 g/m*3 15.1 C 0 km/h
725 18-07-2011 01:01:04 14.5 C 8.83 g/m*3 14.5 C 0 km/h
Sensor: Nr:Datum:Temp:Abs-Feuchte:Windchill:Wind:
Aussen-T/F 726 18-07-2011 01:13:04 14.5 C 8.95 g/m*3 14.5 C 0 km/h
727 18-07-2011 01:25:04 14.5 C 8.95 g/m*3 14.5 C 0 km/h
728 18-07-2011 01:37:04 14.5 C 8.95 g/m*3 14.5 C 0 km/h
729 18-07-2011 01:49:04 14.4 C 8.9 g/m*3 14.4 C 0 km/h
730 18-07-2011 02:01:04 14.3 C 8.85 g/m*3 14.3 C 0 km/h
731 18-07-2011 02:13:04 14.1 C 8.86 g/m*3 14.1 C 0 km/h
732 18-07-2011 02:25:04 13.7 C 8.88 g/m*3 13.7 C 0 km/h
733 18-07-2011 02:37:04 14 C 9.05 g/m*3 14 C 0 km/h
734 18-07-2011 02:49:04 13.9 C 9.23 g/m*3 13.9 C 0 km/h
735 18-07-2011 03:01:04 13.4 C 9.3 g/m*3 13.4 C 0 km/h
736 18-07-2011 03:13:04 13 C 9.3 g/m*3 13 C 0 km/h
737 18-07-2011 03:25:04 12.7 C 9.35 g/m*3 12.7 C 0 km/h
738 18-07-2011 03:37:05 12.9 C 9.69 g/m*3 12.9 C 0 km/h
739 18-07-2011 03:49:05 12.6 C 9.51 g/m*3 12.6 C 0 km/h
740 18-07-2011 04:01:05 12.2 C 9.28 g/m*3 12.2 C 0 km/h
741 18-07-2011 04:13:05 12.3 C 9.45 g/m*3 12.3 C 0 km/h
742 18-07-2011 04:25:05 12.7 C 9.68 g/m*3 12.7 C 0 km/h
743 18-07-2011 04:37:05 12.9 C 9.69 g/m*3 12.9 C 0 km/h
744 18-07-2011 04:49:05 13.1 C 9.59 g/m*3 13.1 C 0 km/h
745 18-07-2011 05:01:05 13.2 C 9.3 g/m*3 13.2 C 0 km/h
746 18-07-2011 05:13:05 12.9 C 9.24 g/m*3 12.9 C 0 km/h
747 18-07-2011 05:25:05 13.1 C 9.36 g/m*3 13.1 C 0 km/h
748 18-07-2011 05:37:05 13.1 C 9.47 g/m*3 13.1 C 0 km/h
749 18-07-2011 05:49:05 13.4 C 9.42 g/m*3 13.4 C 0 km/h
750 18-07-2011 06:01:05 13 C 8.85 g/m*3 13 C 0 km/h
Sensor: Nr:Datum:Temp:Abs-Feuchte:Windchill:Wind:
Aussen-T/F 751 18-07-2011 06:13:05 12.8 C 8.96 g/m*3 12.8 C 0 km/h
752 18-07-2011 06:25:05 13 C 9.19 g/m*3 13 C 0 km/h
753 18-07-2011 06:37:05 13.4 C 9.18 g/m*3 13.4 C 0 km/h
754 18-07-2011 06:49:05 13.5 C 9.01 g/m*3 13.5 C 0 km/h
755 18-07-2011 07:01:05 14.4 C 9.02 g/m*3 14.4 C 0 km/h
756 18-07-2011 07:13:05 15.5 C 8.72 g/m*3 15.5 C 0 km/h
757 18-07-2011 07:25:05 15.9 C 8.67 g/m*3 15.9 C 0 km/h
758 18-07-2011 07:37:03 16 C 8.45 g/m*3 16 C 0 km/h
759 18-07-2011 07:49:02 15.6 C 8.64 g/m*3 15.6 C 0 km/h
760 18-07-2011 08:01:02 15.7 C 8.7 g/m*3 15.7 C 0 km/h
761 18-07-2011 08:13:02 15.8 C 8.75 g/m*3 15.8 C 0 km/h
762 18-07-2011 08:25:02 16 C 8.45 g/m*3 16 C 0 km/h
763 18-07-2011 08:37:01 16.4 C 8.51 g/m*3 16.4 C 0 km/h
764 18-07-2011 08:49:02 16.6 C 8.48 g/m*3 16.6 C 0 km/h
765 18-07-2011 09:01:01 16.9 C 8.34 g/m*3 16.9 C 0 km/h
766 18-07-2011 09:13:01 16.7 C 8.1 g/m*3 16.7 C 0 km/h
767 18-07-2011 09:25:02 17.4 C 8.15 g/m*3 17.4 C 0 km/h
768 18-07-2011 09:37:02 17.4 C 7.85 g/m*3 17.4 C 0 km/h
769 18-07-2011 09:49:02 17.3 C 7.81 g/m*3 17.3 C 0 km/h
770 18-07-2011 10:01:02 17.1 C 7.86 g/m*3 17.1 C 0 km/h
771 18-07-2011 10:13:02 17.6 C 7.95 g/m*3 17.6 C 0 km/h
772 18-07-2011 10:25:02 17.5 C 7.6 g/m*3 17.5 C 0 km/h
773 18-07-2011 10:37:03 17.5 C 7.6 g/m*3 17.5 C 0 km/h
774 18-07-2011 10:49:02 18.2 C 7.62 g/m*3 18.2 C 0 km/h
775 18-07-2011 11:01:02 18.7 C 7.52 g/m*3 18.7 C 0 km/h
Sensor: Nr:Datum:Temp:Abs-Feuchte:Windchill:Wind:
Aussen-T/F 776 18-07-2011 11:13:02 18.3 C 7.51 g/m*3 18.3 C 0 km/h
777 18-07-2011 11:25:02 18.5 C 7.44 g/m*3 18.5 C 0 km/h
778 18-07-2011 11:37:02 18.6 C 7.64 g/m*3 18.6 C 0 km/h
779 18-07-2011 11:49:02 19 C 7.33 g/m*3 19 C 0 km/h
780 18-07-2011 12:01:02 18.9 C 7.45 g/m*3 18.9 C 0 km/h
781 18-07-2011 12:13:02 18.7 C 7.2 g/m*3 18.7 C 0 km/h
782 18-07-2011 12:25:02 19.2 C 7.09 g/m*3 19.2 C 0 km/h
783 18-07-2011 12:37:02 19.9 C 7.22 g/m*3 19.9 C 0 km/h
784 18-07-2011 12:49:02 19.7 C 7.13 g/m*3 19.7 C 0 km/h
785 18-07-2011 13:01:02 20.6 C 7.16 g/m*3 20.6 C 0 km/h
786 18-07-2011 13:13:03 20.8 C 7.24 g/m*3 20.8 C 0 km/h
787 18-07-2011 13:25:02 20.4 C 6.9 g/m*3 20.4 C 0 km/h
788 18-07-2011 13:37:02 21.5 C 5.85 g/m*3 21.5 C 0 km/h
789 18-07-2011 13:49:02 20.9 C 6.37 g/m*3 20.9 C 0 km/h
790 18-07-2011 14:01:02 21.9 C 6.18 g/m*3 21.9 C 0 km/h
791 18-07-2011 14:13:02 22.5 C 6.59 g/m*3 22.5 C 0 km/h
792 18-07-2011 14:25:02 24.3 C 6.64 g/m*3 24.3 C 0 km/h
793 18-07-2011 14:37:02 24.6 C 6.08 g/m*3 24.6 C 0 km/h
794 18-07-2011 14:49:02 24.5 C 6.04 g/m*3 24.5 C 0 km/h
795 18-07-2011 15:01:02 23.3 C 6.06 g/m*3 23.3 C 0 km/h
796 18-07-2011 15:13:02 24.3 C 5.97 g/m*3 24.3 C 0 km/h
797 18-07-2011 15:25:03 23.7 C 5.99 g/m*3 23.7 C 0 km/h
798 18-07-2011 15:37:02 24.6 C 6.53 g/m*3 24.6 C 0 km/h
799 18-07-2011 15:49:03 23.7 C 6.2 g/m*3 23.7 C 0 km/h
800 18-07-2011 16:01:02 21.2 C 5.93 g/m*3 21.2 C 0 km/h
Sensor: Nr:Datum:Temp:Abs-Feuchte:Windchill:Wind:
Aussen-T/F 801 18-07-2011 16:13:02 16.1 C 5.62 g/m*3 16.1 C 0 km/h
802 18-07-2011 16:25:02 14.4 C 8.41 g/m*3 14.4 C 0 km/h
803 18-07-2011 16:37:02 14.7 C 8.94 g/m*3 14.7 C 0 km/h
804 18-07-2011 16:49:02 18.1 C 9.12 g/m*3 18.1 C 0 km/h
805 18-07-2011 17:01:02 22.4 C 8.74 g/m*3 22.4 C 0 km/h
806 18-07-2011 17:13:02 23.2 C 7.48 g/m*3 23.2 C 0 km/h
807 18-07-2011 17:25:02 23.7 C 6.84 g/m*3 23.7 C 0 km/h
808 18-07-2011 17:37:02 24 C 6.74 g/m*3 24 C 0 km/h
809 18-07-2011 17:49:02 25.2 C 6.75 g/m*3 25.2 C 0 km/h
810 18-07-2011 18:01:02 21.6 C 7.02 g/m*3 21.6 C 0 km/h
811 18-07-2011 18:13:02 18.7 C 5.76 g/m*3 18.7 C 0 km/h
812 18-07-2011 18:25:02 17.7 C 6.04 g/m*3 17.7 C 0 km/h
813 18-07-2011 18:37:01 17.9 C 6.11 g/m*3 17.9 C 0 km/h
814 18-07-2011 18:49:02 17.9 C 6.11 g/m*3 17.9 C 0 km/h
815 18-07-2011 19:01:01 17.6 C 6 g/m*3 17.6 C 0 km/h
816 18-07-2011 19:13:01 21.2 C 6.12 g/m*3 21.2 C 0 km/h
817 18-07-2011 19:25:02 20.9 C 5.65 g/m*3 20.9 C 0 km/h
818 18-07-2011 19:37:02 21.2 C 5.74 g/m*3 21.2 C 0 km/h
819 18-07-2011 19:49:02 19.7 C 6.11 g/m*3 19.7 C 0 km/h
820 18-07-2011 20:01:03 18.9 C 6.48 g/m*3 18.9 C 0 km/h
821 18-07-2011 20:13:03 18.4 C 6.45 g/m*3 18.4 C 0 km/h
822 18-07-2011 20:25:02 17.5 C 7.01 g/m*3 17.5 C 0 km/h
823 18-07-2011 20:37:02 16.4 C 7.26 g/m*3 16.4 C 0 km/h
824 18-07-2011 20:49:01 15.8 C 7.4 g/m*3 15.8 C 0 km/h
825 18-07-2011 21:01:02 15.4 C 7.62 g/m*3 15.4 C 0 km/h
Sensor: Nr:Datum:Temp:Abs-Feuchte:Windchill:Wind:
Aussen-T/F 826 18-07-2011 21:13:02 14.9 C 7.65 g/m*3 14.9 C 0 km/h
827 18-07-2011 21:25:01 15 C 7.57 g/m*3 15 C 0 km/h
828 18-07-2011 21:37:02 14.6 C 7.63 g/m*3 14.6 C 0 km/h
829 18-07-2011 21:49:02 14.2 C 7.82 g/m*3 14.2 C 0 km/h
830 18-07-2011 22:02:03 14 C 7.84 g/m*3 14 C 0 km/h
831 18-07-2011 22:14:04 13.8 C 7.86 g/m*3 13.8 C 0 km/h
832 18-07-2011 22:26:04 13.5 C 7.72 g/m*3 13.5 C 0 km/h
833 18-07-2011 22:38:04 13.5 C 7.84 g/m*3 13.5 C 0 km/h
834 18-07-2011 22:50:04 13.7 C 8.05 g/m*3 13.7 C 0 km/h
835 18-07-2011 23:02:04 14 C 7.96 g/m*3 14 C 0 km/h
836 18-07-2011 23:14:04 14.2 C 7.94 g/m*3 14.2 C 0 km/h
837 18-07-2011 23:26:04 14.1 C 7.89 g/m*3 14.1 C 0 km/h
838 18-07-2011 23:38:04 14 C 8.08 g/m*3 14 C 0 km/h
839 18-07-2011 23:50:04 13.4 C 7.9 g/m*3 13.4 C 0 km/h
840 19-07-2011 00:02:04 13.1 C 7.99 g/m*3 13.1 C 0 km/h
841 19-07-2011 00:14:04 12.5 C 8.03 g/m*3 12.5 C 0 km/h
842 19-07-2011 00:26:04 12.8 C 8.29 g/m*3 12.8 C 0 km/h
843 19-07-2011 00:38:04 12.8 C 8.06 g/m*3 12.8 C 0 km/h
844 19-07-2011 00:50:04 12.4 C 7.98 g/m*3 12.4 C 0 km/h
845 19-07-2011 01:02:04 12.1 C 8.15 g/m*3 12.1 C 0 km/h
846 19-07-2011 01:14:04 12 C 8.21 g/m*3 12 C 0 km/h
847 19-07-2011 01:26:04 12.1 C 8.26 g/m*3 12.1 C 0 km/h
848 19-07-2011 01:38:04 12.1 C 8.26 g/m*3 12.1 C 0 km/h
849 19-07-2011 01:50:04 11.8 C 8.31 g/m*3 11.8 C 0 km/h
850 19-07-2011 02:02:04 11.9 C 8.47 g/m*3 11.9 C 0 km/h
Sensor: Nr:Datum:Temp:Abs-Feuchte:Windchill:Wind:
Aussen-T/F 851 19-07-2011 02:14:05 11.5 C 8.26 g/m*3 11.5 C 0 km/h
852 19-07-2011 02:26:05 11.7 C 8.47 g/m*3 11.7 C 0 km/h
853 19-07-2011 02:38:05 11.5 C 8.37 g/m*3 11.5 C 0 km/h
854 19-07-2011 02:50:05 11.4 C 8.42 g/m*3 11.4 C 0 km/h
855 19-07-2011 03:02:05 11.8 C 8.63 g/m*3 11.8 C 0 km/h
856 19-07-2011 03:14:05 11.8 C 8.63 g/m*3 11.8 C 0 km/h
857 19-07-2011 03:26:05 11.8 C 8.63 g/m*3 11.8 C 0 km/h
858 19-07-2011 03:38:05 11.2 C 8.31 g/m*3 11.2 C 0 km/h
859 19-07-2011 03:50:05 11.1 C 8.26 g/m*3 11.1 C 0 km/h
860 19-07-2011 04:02:05 11.2 C 8.41 g/m*3 11.2 C 0 km/h
861 19-07-2011 04:14:05 11.6 C 8.73 g/m*3 11.6 C 0 km/h
862 19-07-2011 04:26:05 11.8 C 8.84 g/m*3 11.8 C 0 km/h
863 19-07-2011 04:38:05 11.8 C 8.84 g/m*3 11.8 C 0 km/h
864 19-07-2011 04:50:05 12 C 8.85 g/m*3 12 C 0 km/h
865 19-07-2011 05:02:05 11.9 C 8.79 g/m*3 11.9 C 0 km/h
866 19-07-2011 05:14:05 11.9 C 8.68 g/m*3 11.9 C 0 km/h
867 19-07-2011 05:26:05 12 C 8.74 g/m*3 12 C 0 km/h
868 19-07-2011 05:38:05 11.8 C 8.74 g/m*3 11.8 C 0 km/h
869 19-07-2011 05:50:05 11.3 C 8.36 g/m*3 11.3 C 0 km/h
870 19-07-2011 06:02:05 10.8 C 8.2 g/m*3 10.8 C 0 km/h
871 19-07-2011 06:14:05 11 C 8.31 g/m*3 11 C 0 km/h
872 19-07-2011 06:26:06 11 C 8.41 g/m*3 11 C 0 km/h
873 19-07-2011 06:38:06 10.9 C 8.36 g/m*3 10.9 C 0 km/h
874 19-07-2011 06:50:06 11.2 C 8.62 g/m*3 11.2 C 0 km/h
875 19-07-2011 07:02:02 11.2 C 8.62 g/m*3 11.2 C 0 km/h
Sensor: Nr:Datum:Temp:Abs-Feuchte:Windchill:Wind:
Aussen-T/F 876 19-07-2011 07:14:02 11.9 C 9 g/m*3 11.9 C 0 km/h
877 19-07-2011 07:26:03 12.8 C 9.52 g/m*3 12.8 C 0 km/h
878 19-07-2011 07:38:02 13.7 C 9.83 g/m*3 13.7 C 0 km/h
879 19-07-2011 07:50:02 13.8 C 9.29 g/m*3 13.8 C 0 km/h
880 19-07-2011 08:02:02 14.1 C 9.1 g/m*3 14.1 C 0 km/h
881 19-07-2011 08:14:02 14.4 C 9.02 g/m*3 14.4 C 0 km/h
882 19-07-2011 08:26:03 15.2 C 8.83 g/m*3 15.2 C 0 km/h
883 19-07-2011 08:38:02 15.7 C 8.7 g/m*3 15.7 C 0 km/h
884 19-07-2011 08:50:02 16.6 C 8.62 g/m*3 16.6 C 0 km/h
885 19-07-2011 09:02:02 16.8 C 8.29 g/m*3 16.8 C 0 km/h
886 19-07-2011 09:14:02 17.4 C 8.45 g/m*3 17.4 C 0 km/h
887 19-07-2011 09:26:02 17.7 C 8.45 g/m*3 17.7 C 0 km/h
888 19-07-2011 09:38:02 18.7 C 8.33 g/m*3 18.7 C 0 km/h
889 19-07-2011 09:50:02 19.2 C 7.91 g/m*3 19.2 C 0 km/h
890 19-07-2011 10:02:02 18.9 C 7.78 g/m*3 18.9 C 0 km/h
891 19-07-2011 10:14:02 19.1 C 7.7 g/m*3 19.1 C 0 km/h
892 19-07-2011 10:26:02 18.8 C 7.57 g/m*3 18.8 C 0 km/h
893 19-07-2011 10:38:02 19.7 C 7.98 g/m*3 19.7 C 0 km/h
894 19-07-2011 10:50:02 19.3 C 7.63 g/m*3 19.3 C 0 km/h
895 19-07-2011 11:02:02 20.8 C 7.42 g/m*3 20.8 C 0 km/h
896 19-07-2011 11:14:02 21.5 C 7.35 g/m*3 21.5 C 0 km/h
897 19-07-2011 11:26:02 21.3 C 7.64 g/m*3 21.3 C 0 km/h
898 19-07-2011 11:38:01 20.2 C 7.34 g/m*3 20.2 C 0 km/h
899 19-07-2011 11:50:02 21.3 C 7.27 g/m*3 21.3 C 0 km/h
900 19-07-2011 12:02:01 21.6 C 7.21 g/m*3 21.6 C 0 km/h
Sensor: Nr:Datum:Temp:Abs-Feuchte:Windchill:Wind:
Aussen-T/F 901 19-07-2011 12:14:01 22.2 C 6.68 g/m*3 22.2 C 0 km/h
902 19-07-2011 12:26:02 22 C 6.79 g/m*3 22 C 0 km/h
903 19-07-2011 12:38:02 23.1 C 6.41 g/m*3 23.1 C 0 km/h
904 19-07-2011 12:50:02 23.3 C 6.48 g/m*3 23.3 C 0 km/h
905 19-07-2011 13:02:02 23.5 C 6.98 g/m*3 23.5 C 0 km/h
906 19-07-2011 13:14:02 24.2 C 6.6 g/m*3 24.2 C 0 km/h
907 19-07-2011 13:26:02 24.4 C 6.9 g/m*3 24.4 C 0 km/h
908 19-07-2011 13:38:02 24.6 C 6.75 g/m*3 24.6 C 0 km/h
909 19-07-2011 13:50:02 25.6 C 6.19 g/m*3 25.6 C 0 km/h
910 19-07-2011 14:02:02 27.2 C 5.72 g/m*3 27.2 C 0 km/h
911 19-07-2011 14:14:02 26.6 C 6.29 g/m*3 26.6 C 0 km/h
912 19-07-2011 14:26:02 25.3 C 5.85 g/m*3 25.3 C 0 km/h
913 19-07-2011 14:38:01 26.9 C 6.4 g/m*3 26.9 C 0 km/h
914 19-07-2011 14:50:03 25.8 C 6.02 g/m*3 25.8 C 0 km/h
915 19-07-2011 15:02:02 25.5 C 5.92 g/m*3 25.5 C 0 km/h
916 19-07-2011 15:14:02 24.5 C 5.6 g/m*3 24.5 C 0 km/h
917 19-07-2011 15:26:02 25.2 C 6.05 g/m*3 25.2 C 0 km/h
918 19-07-2011 15:38:03 25.1 C 6.02 g/m*3 25.1 C 0 km/h
919 19-07-2011 15:50:02 23.9 C 6.27 g/m*3 23.9 C 0 km/h
920 19-07-2011 16:02:01 23.1 C 7.86 g/m*3 23.1 C 0 km/h
921 19-07-2011 16:14:01 22.5 C 8.19 g/m*3 22.5 C 0 km/h
922 19-07-2011 16:26:02 22.1 C 8.59 g/m*3 22.1 C 0 km/h
923 19-07-2011 16:38:02 21.2 C 7.04 g/m*3 21.2 C 0 km/h
924 19-07-2011 16:50:02 16.4 C 10.47 g/m*3 16.4 C 0 km/h
925 19-07-2011 17:02:03 16.2 C 10.89 g/m*3 16.2 C 0 km/h
Sensor: Nr:Datum:Temp:Abs-Feuchte:Windchill:Wind:
Aussen-T/F 926 19-07-2011 17:14:03 16.2 C 11.17 g/m*3 16.2 C 0 km/h
927 19-07-2011 17:26:02 16.7 C 11.23 g/m*3 16.7 C 0 km/h
928 19-07-2011 17:38:02 17 C 11.14 g/m*3 17 C 0 km/h
929 19-07-2011 17:50:01 16.6 C 11.02 g/m*3 16.6 C 0 km/h
930 19-07-2011 18:02:02 16.9 C 11.22 g/m*3 16.9 C 0 km/h
931 19-07-2011 18:14:02 17.1 C 11.35 g/m*3 17.1 C 0 km/h
932 19-07-2011 18:26:01 17 C 11.29 g/m*3 17 C 0 km/h
933 19-07-2011 18:38:02 16.7 C 11.37 g/m*3 16.7 C 0 km/h
934 19-07-2011 18:50:01 16.7 C 11.23 g/m*3 16.7 C 0 km/h
935 19-07-2011 19:02:02 16.8 C 11.44 g/m*3 16.8 C 0 km/h
936 19-07-2011 19:14:02 16.6 C 11.3 g/m*3 16.6 C 0 km/h
937 19-07-2011 19:26:01 16.3 C 10.96 g/m*3 16.3 C 0 km/h
938 19-07-2011 19:38:02 16.2 C 11.03 g/m*3 16.2 C 0 km/h
939 19-07-2011 19:50:01 16 C 10.9 g/m*3 16 C 0 km/h
940 19-07-2011 20:02:02 16.1 C 11.24 g/m*3 16.1 C 0 km/h
941 19-07-2011 20:14:02 16.2 C 11.45 g/m*3 16.2 C 0 km/h
942 19-07-2011 20:26:02 16 C 11.31 g/m*3 16 C 0 km/h
943 19-07-2011 20:38:01 15.7 C 10.97 g/m*3 15.7 C 0 km/h
944 19-07-2011 20:50:02 15.4 C 10.51 g/m*3 15.4 C 0 km/h
945 19-07-2011 21:02:01 15.1 C 10.32 g/m*3 15.1 C 0 km/h
946 19-07-2011 21:14:01 15 C 10.39 g/m*3 15 C 0 km/h
947 19-07-2011 21:26:02 14.7 C 10.32 g/m*3 14.7 C 0 km/h
948 19-07-2011 21:38:01 14.6 C 10.14 g/m*3 14.6 C 0 km/h
949 19-07-2011 21:50:02 14.4 C 10.01 g/m*3 14.4 C 0 km/h
950 19-07-2011 22:02:03 14.4 C 9.89 g/m*3 14.4 C 0 km/h
Sensor: Nr:Datum:Temp:Abs-Feuchte:Windchill:Wind:
Aussen-T/F 951 19-07-2011 22:14:03 14.3 C 9.71 g/m*3 14.3 C 0 km/h
952 19-07-2011 22:27:04 14.3 C 9.83 g/m*3 14.3 C 0 km/h
953 19-07-2011 22:39:04 14.2 C 9.77 g/m*3 14.2 C 0 km/h
954 19-07-2011 22:51:04 14.3 C 9.71 g/m*3 14.3 C 0 km/h
955 19-07-2011 23:03:04 14.2 C 9.65 g/m*3 14.2 C 0 km/h
956 19-07-2011 23:15:04 14.2 C 9.52 g/m*3 14.2 C 0 km/h
957 19-07-2011 23:27:04 14.3 C 9.58 g/m*3 14.3 C 0 km/h
958 19-07-2011 23:39:04 14.4 C 9.39 g/m*3 14.4 C 0 km/h
959 19-07-2011 23:51:04 14.3 C 9.34 g/m*3 14.3 C 0 km/h
960 20-07-2011 00:03:04 14.2 C 9.28 g/m*3 14.2 C 0 km/h
961 20-07-2011 00:15:04 14.3 C 9.58 g/m*3 14.3 C 0 km/h
962 20-07-2011 00:27:04 14.3 C 9.46 g/m*3 14.3 C 0 km/h
963 20-07-2011 00:39:05 14.4 C 9.52 g/m*3 14.4 C 0 km/h
964 20-07-2011 00:51:05 14.4 C 9.39 g/m*3 14.4 C 0 km/h
965 20-07-2011 01:03:05 14.3 C 9.34 g/m*3 14.3 C 0 km/h
966 20-07-2011 01:15:05 14.3 C 9.46 g/m*3 14.3 C 0 km/h
967 20-07-2011 01:27:05 14.3 C 9.34 g/m*3 14.3 C 0 km/h
968 20-07-2011 01:39:05 14.3 C 9.46 g/m*3 14.3 C 0 km/h
969 20-07-2011 01:51:05 14.2 C 9.4 g/m*3 14.2 C 0 km/h
970 20-07-2011 02:03:05 14.3 C 9.21 g/m*3 14.3 C 0 km/h
971 20-07-2011 02:15:05 14 C 9.17 g/m*3 14 C 0 km/h
972 20-07-2011 02:27:05 13.8 C 9.41 g/m*3 13.8 C 0 km/h
973 20-07-2011 02:39:05 13.6 C 9.3 g/m*3 13.6 C 0 km/h
974 20-07-2011 02:51:05 13.6 C 9.42 g/m*3 13.6 C 0 km/h
975 20-07-2011 03:03:05 13.5 C 9.47 g/m*3 13.5 C 0 km/h
Sensor: Nr:Datum:Temp:Abs-Feuchte:Windchill:Wind:
Aussen-T/F 976 20-07-2011 03:15:05 13.2 C 9.19 g/m*3 13.2 C 0 km/h
977 20-07-2011 03:27:05 13.2 C 9.3 g/m*3 13.2 C 0 km/h
978 20-07-2011 03:39:05 13.3 C 9.47 g/m*3 13.3 C 0 km/h
979 20-07-2011 03:51:05 13.4 C 9.53 g/m*3 13.4 C 0 km/h
980 20-07-2011 04:03:05 13.2 C 9.42 g/m*3 13.2 C 0 km/h
981 20-07-2011 04:15:05 13.3 C 9.47 g/m*3 13.3 C 0 km/h
982 20-07-2011 04:27:05 13.4 C 9.65 g/m*3 13.4 C 0 km/h
983 20-07-2011 04:39:05 13.6 C 9.65 g/m*3 13.6 C 0 km/h
984 20-07-2011 04:51:06 13.5 C 9.59 g/m*3 13.5 C 0 km/h
985 20-07-2011 05:03:06 13.3 C 9.47 g/m*3 13.3 C 0 km/h
986 20-07-2011 05:15:06 13.3 C 9.59 g/m*3 13.3 C 0 km/h
987 20-07-2011 05:27:06 13.3 C 9.59 g/m*3 13.3 C 0 km/h
988 20-07-2011 05:39:06 13.2 C 9.42 g/m*3 13.2 C 0 km/h
989 20-07-2011 05:51:06 13.3 C 9.59 g/m*3 13.3 C 0 km/h
990 20-07-2011 06:03:06 13.3 C 9.59 g/m*3 13.3 C 0 km/h
991 20-07-2011 06:15:06 13.4 C 9.65 g/m*3 13.4 C 0 km/h
992 20-07-2011 06:27:06 13.7 C 9.71 g/m*3 13.7 C 0 km/h
993 20-07-2011 06:39:06 14.1 C 9.71 g/m*3 14.1 C 0 km/h
994 20-07-2011 06:51:06 14.3 C 9.71 g/m*3 14.3 C 0 km/h
995 20-07-2011 07:03:06 14.5 C 9.7 g/m*3 14.5 C 0 km/h
996 20-07-2011 07:15:03 14.7 C 9.82 g/m*3 14.7 C 0 km/h
997 20-07-2011 07:27:03 14.8 C 9.88 g/m*3 14.8 C 0 km/h
998 20-07-2011 07:39:03 14.9 C 9.94 g/m*3 14.9 C 0 km/h
999 20-07-2011 07:51:02 14.9 C 10.07 g/m*3 14.9 C 0 km/h
1000 20-07-2011 08:03:02 15.1 C 9.93 g/m*3 15.1 C 0 km/h
Sensor: Nr:Datum:Temp:Abs-Feuchte:Windchill:Wind:
Aussen-T/F 1001 20-07-2011 08:15:02 15.2 C 9.86 g/m*3 15.2 C 0 km/h
1002 20-07-2011 08:27:02 15.4 C 9.99 g/m*3 15.4 C 0 km/h
1003 20-07-2011 08:39:02 15.6 C 10.11 g/m*3 15.6 C 0 km/h
1004 20-07-2011 08:51:02 15.6 C 9.97 g/m*3 15.6 C 0 km/h
1005 20-07-2011 09:03:01 15.8 C 9.96 g/m*3 15.8 C 0 km/h
1006 20-07-2011 09:15:02 15.8 C 9.83 g/m*3 15.8 C 0 km/h
1007 20-07-2011 09:27:02 15.9 C 9.89 g/m*3 15.9 C 0 km/h
1008 20-07-2011 09:39:01 16.1 C 9.73 g/m*3 16.1 C 0 km/h
1009 20-07-2011 09:51:01 16.4 C 9.77 g/m*3 16.4 C 0 km/h
1010 20-07-2011 10:03:02 17 C 9.69 g/m*3 17 C 0 km/h
1011 20-07-2011 10:15:02 16.8 C 9.58 g/m*3 16.8 C 0 km/h
1012 20-07-2011 10:27:02 17 C 9.69 g/m*3 17 C 0 km/h
1013 20-07-2011 10:39:02 16.9 C 9.64 g/m*3 16.9 C 0 km/h
1014 20-07-2011 10:51:01 17.1 C 9.75 g/m*3 17.1 C 0 km/h
1015 20-07-2011 11:03:02 17.2 C 9.67 g/m*3 17.2 C 0 km/h
1016 20-07-2011 11:15:02 17.7 C 9.81 g/m*3 17.7 C 0 km/h
1017 20-07-2011 11:27:02 18 C 9.52 g/m*3 18 C 0 km/h
1018 20-07-2011 11:39:01 18.7 C 9.61 g/m*3 18.7 C 0 km/h
1019 20-07-2011 11:51:02 18.8 C 9.34 g/m*3 18.8 C 0 km/h
1020 20-07-2011 12:03:01 19.3 C 8.96 g/m*3 19.3 C 0 km/h
1021 20-07-2011 12:15:02 20.6 C 8.95 g/m*3 20.6 C 0 km/h
1022 20-07-2011 12:27:02 20.7 C 8.82 g/m*3 20.7 C 0 km/h
1023 20-07-2011 12:39:01 21.4 C 8.44 g/m*3 21.4 C 0 km/h
1024 20-07-2011 12:51:02 20.8 C 8.15 g/m*3 20.8 C 0 km/h
1025 20-07-2011 13:03:02 23.2 C 8.73 g/m*3 23.2 C 0 km/h
Sensor: Nr:Datum:Temp:Abs-Feuchte:Windchill:Wind:
Aussen-T/F 1026 20-07-2011 13:15:02 24 C 8.05 g/m*3 24 C 0 km/h
1027 20-07-2011 13:27:02 23.8 C 8.6 g/m*3 23.8 C 0 km/h
1028 20-07-2011 13:39:03 22.8 C 8.53 g/m*3 22.8 C 0 km/h
1029 20-07-2011 13:51:02 21.5 C 8.49 g/m*3 21.5 C 0 km/h
1030 20-07-2011 14:03:02 20.5 C 8.54 g/m*3 20.5 C 0 km/h
1031 20-07-2011 14:15:02 18.2 C 9.33 g/m*3 18.2 C 0 km/h
1032 20-07-2011 14:27:02 16.7 C 10.37 g/m*3 16.7 C 0 km/h
1033 20-07-2011 14:39:02 16.2 C 10.76 g/m*3 16.2 C 0 km/h
1034 20-07-2011 14:51:02 16.2 C 10.89 g/m*3 16.2 C 0 km/h
1035 20-07-2011 15:03:02 16.2 C 11.03 g/m*3 16.2 C 0 km/h
1036 20-07-2011 15:15:02 16.1 C 11.1 g/m*3 16.1 C 0 km/h
1037 20-07-2011 15:27:02 16.3 C 11.38 g/m*3 16.3 C 0 km/h
1038 20-07-2011 15:39:02 16.2 C 11.31 g/m*3 16.2 C 0 km/h
1039 20-07-2011 15:51:02 16.3 C 11.52 g/m*3 16.3 C 0 km/h
1040 20-07-2011 16:03:02 16.8 C 11.87 g/m*3 16.8 C 0 km/h
1041 20-07-2011 16:15:02 17.1 C 11.94 g/m*3 17.1 C 0 km/h
1042 20-07-2011 16:27:02 17.3 C 11.93 g/m*3 17.3 C 0 km/h
1043 20-07-2011 16:39:02 17.7 C 12.07 g/m*3 17.7 C 0 km/h
1044 20-07-2011 16:51:01 18.1 C 12.05 g/m*3 18.1 C 0 km/h
1045 20-07-2011 17:03:01 18.6 C 12.1 g/m*3 18.6 C 0 km/h
1046 20-07-2011 17:15:02 18.5 C 11.71 g/m*3 18.5 C 0 km/h
1047 20-07-2011 17:27:02 18.3 C 11.73 g/m*3 18.3 C 0 km/h
1048 20-07-2011 17:39:01 17.6 C 11.4 g/m*3 17.6 C 0 km/h
1049 20-07-2011 17:51:02 17.4 C 11.56 g/m*3 17.4 C 0 km/h
1050 20-07-2011 18:03:02 17.1 C 11.5 g/m*3 17.1 C 0 km/h
Sensor: Nr:Datum:Temp:Abs-Feuchte:Windchill:Wind:
Aussen-T/F 1051 20-07-2011 18:15:02 16.7 C 11.37 g/m*3 16.7 C 0 km/h
1052 20-07-2011 18:27:02 16.6 C 11.58 g/m*3 16.6 C 0 km/h
1053 20-07-2011 18:39:02 16.2 C 11.45 g/m*3 16.2 C 0 km/h
1054 20-07-2011 18:51:02 16.1 C 11.51 g/m*3 16.1 C 0 km/h
1055 20-07-2011 19:03:02 15.8 C 11.44 g/m*3 15.8 C 0 km/h
1056 20-07-2011 19:15:02 15.8 C 11.58 g/m*3 15.8 C 0 km/h
1057 20-07-2011 19:27:03 15.8 C 11.58 g/m*3 15.8 C 0 km/h
1058 20-07-2011 19:39:02 15.8 C 11.71 g/m*3 15.8 C 0 km/h
1059 20-07-2011 19:51:02 15.9 C 11.78 g/m*3 15.9 C 0 km/h
1060 20-07-2011 20:03:01 16.1 C 11.93 g/m*3 16.1 C 0 km/h
1061 20-07-2011 20:15:02 15.8 C 11.71 g/m*3 15.8 C 0 km/h
1062 20-07-2011 20:27:02 15.6 C 11.57 g/m*3 15.6 C 0 km/h
1063 20-07-2011 20:39:02 15.1 C 11.22 g/m*3 15.1 C 0 km/h
1064 20-07-2011 20:51:02 15 C 11.16 g/m*3 15 C 0 km/h
1065 20-07-2011 21:03:03 14.9 C 11.22 g/m*3 14.9 C 0 km/h
1066 20-07-2011 21:15:02 14.9 C 11.22 g/m*3 14.9 C 0 km/h
1067 20-07-2011 21:27:02 14.8 C 11.27 g/m*3 14.8 C 0 km/h
1068 20-07-2011 21:39:02 14.8 C 11.27 g/m*3 14.8 C 0 km/h
1069 20-07-2011 21:51:01 15 C 11.28 g/m*3 15 C 0 km/h
1070 20-07-2011 22:04:02 14.8 C 11.27 g/m*3 14.8 C 0 km/h
1071 20-07-2011 22:16:03 14.7 C 11.21 g/m*3 14.7 C 0 km/h
1072 20-07-2011 22:28:03 14.7 C 11.21 g/m*3 14.7 C 0 km/h
1073 20-07-2011 22:40:03 14.5 C 11.07 g/m*3 14.5 C 0 km/h
1074 20-07-2011 22:52:03 14.4 C 11 g/m*3 14.4 C 0 km/h
1075 20-07-2011 23:04:03 14.3 C 10.93 g/m*3 14.3 C 0 km/h
Sensor: Nr:Datum:Temp:Abs-Feuchte:Windchill:Wind:
Aussen-T/F 1076 20-07-2011 23:16:03 14.4 C 11 g/m*3 14.4 C 0 km/h
1077 20-07-2011 23:28:03 14.5 C 11.19 g/m*3 14.5 C 0 km/h
1078 20-07-2011 23:40:03 14.4 C 11.13 g/m*3 14.4 C 0 km/h
1079 20-07-2011 23:52:03 14.4 C 11.13 g/m*3 14.4 C 0 km/h
1080 21-07-2011 00:04:03 14.4 C 11.13 g/m*3 14.4 C 0 km/h
1081 21-07-2011 00:16:03 14.2 C 10.99 g/m*3 14.2 C 0 km/h
1082 21-07-2011 00:28:03 14.4 C 11.13 g/m*3 14.4 C 0 km/h
1083 21-07-2011 00:40:03 14.4 C 11.13 g/m*3 14.4 C 0 km/h
1084 21-07-2011 00:52:03 14.4 C 11.13 g/m*3 14.4 C 0 km/h
1085 21-07-2011 01:04:03 14.4 C 11.13 g/m*3 14.4 C 0 km/h
1086 21-07-2011 01:16:03 14.4 C 11.13 g/m*3 14.4 C 0 km/h
1087 21-07-2011 01:28:03 14.4 C 11.13 g/m*3 14.4 C 0 km/h
1088 21-07-2011 01:40:03 14.3 C 11.06 g/m*3 14.3 C 0 km/h
1089 21-07-2011 01:52:03 14.2 C 10.99 g/m*3 14.2 C 0 km/h
1090 21-07-2011 02:04:03 14.2 C 10.99 g/m*3 14.2 C 0 km/h
1091 21-07-2011 02:16:03 14.2 C 10.99 g/m*3 14.2 C 0 km/h
1092 21-07-2011 02:28:04 14.2 C 10.99 g/m*3 14.2 C 0 km/h
1093 21-07-2011 02:40:04 14.1 C 10.92 g/m*3 14.1 C 0 km/h
1094 21-07-2011 02:52:04 14.1 C 10.92 g/m*3 14.1 C 0 km/h
1095 21-07-2011 03:04:04 14 C 10.86 g/m*3 14 C 0 km/h
1096 21-07-2011 03:16:04 13.8 C 10.84 g/m*3 13.8 C 0 km/h
1097 21-07-2011 03:28:04 13.6 C 10.71 g/m*3 13.6 C 0 km/h
1098 21-07-2011 03:40:04 13.6 C 10.71 g/m*3 13.6 C 0 km/h
1099 21-07-2011 03:52:04 13.5 C 10.64 g/m*3 13.5 C 0 km/h
1100 21-07-2011 04:04:04 13.5 C 10.64 g/m*3 13.5 C 0 km/h
Sensor: Nr:Datum:Temp:Abs-Feuchte:Windchill:Wind:
Aussen-T/F 1101 21-07-2011 04:16:04 13.4 C 10.58 g/m*3 13.4 C 0 km/h
1102 21-07-2011 04:28:04 13.5 C 10.64 g/m*3 13.5 C 0 km/h
1103 21-07-2011 04:40:04 13.5 C 10.64 g/m*3 13.5 C 0 km/h
1104 21-07-2011 04:52:04 13.4 C 10.58 g/m*3 13.4 C 0 km/h
1105 21-07-2011 05:04:04 13.2 C 10.45 g/m*3 13.2 C 0 km/h
1106 21-07-2011 05:16:04 13.2 C 10.45 g/m*3 13.2 C 0 km/h
1107 21-07-2011 05:28:04 13.1 C 10.38 g/m*3 13.1 C 0 km/h
1108 21-07-2011 05:40:04 13.1 C 10.38 g/m*3 13.1 C 0 km/h
1109 21-07-2011 05:52:04 13.1 C 10.38 g/m*3 13.1 C 0 km/h
1110 21-07-2011 06:04:04 13.2 C 10.45 g/m*3 13.2 C 0 km/h
1111 21-07-2011 06:16:04 13.3 C 10.51 g/m*3 13.3 C 0 km/h
1112 21-07-2011 06:28:05 13.5 C 10.64 g/m*3 13.5 C 0 km/h
1113 21-07-2011 06:40:05 13.4 C 10.58 g/m*3 13.4 C 0 km/h
1114 21-07-2011 06:52:05 13.6 C 10.71 g/m*3 13.6 C 0 km/h
1115 21-07-2011 07:04:01 13.9 C 10.91 g/m*3 13.9 C 0 km/h
1116 21-07-2011 07:16:02 14.1 C 11.04 g/m*3 14.1 C 0 km/h
1117 21-07-2011 07:28:02 14.1 C 11.04 g/m*3 14.1 C 0 km/h
1118 21-07-2011 07:40:01 14.4 C 11.25 g/m*3 14.4 C 0 km/h
1119 21-07-2011 07:52:02 14.7 C 11.46 g/m*3 14.7 C 0 km/h
1120 21-07-2011 08:04:01 14.9 C 11.6 g/m*3 14.9 C 0 km/h
1121 21-07-2011 08:16:01 15.2 C 11.42 g/m*3 15.2 C 0 km/h
1122 21-07-2011 08:28:01 15.4 C 11.43 g/m*3 15.4 C 0 km/h
1123 21-07-2011 08:40:02 15.9 C 11.24 g/m*3 15.9 C 0 km/h
1124 21-07-2011 08:52:02 16.2 C 10.76 g/m*3 16.2 C 0 km/h
1125 21-07-2011 09:04:02 16.5 C 10.39 g/m*3 16.5 C 0 km/h
Sensor: Nr:Datum:Temp:Abs-Feuchte:Windchill:Wind:
Aussen-T/F 1126 21-07-2011 09:16:02 16.9 C 10.07 g/m*3 16.9 C 0 km/h
1127 21-07-2011 09:28:02 17 C 9.41 g/m*3 17 C 0 km/h
1128 21-07-2011 09:40:02 17.7 C 10.11 g/m*3 17.7 C 0 km/h
1129 21-07-2011 09:52:01 18.4 C 10.07 g/m*3 18.4 C 0 km/h
1130 21-07-2011 10:04:02 18.9 C 9.72 g/m*3 18.9 C 0 km/h
1131 21-07-2011 10:16:02 18.9 C 9.56 g/m*3 18.9 C 0 km/h
1132 21-07-2011 10:28:02 19.1 C 9.18 g/m*3 19.1 C 0 km/h
1133 21-07-2011 10:40:01 19.7 C 9.17 g/m*3 19.7 C 0 km/h
1134 21-07-2011 10:52:02 19.9 C 9.45 g/m*3 19.9 C 0 km/h
1135 21-07-2011 11:04:01 19.3 C 9.29 g/m*3 19.3 C 0 km/h
1136 21-07-2011 11:16:02 20.8 C 9.78 g/m*3 20.8 C 0 km/h
1137 21-07-2011 11:28:03 20.8 C 9.42 g/m*3 20.8 C 0 km/h
1138 21-07-2011 11:40:01 20.1 C 8.52 g/m*3 20.1 C 0 km/h
1139 21-07-2011 11:52:02 19.9 C 8.93 g/m*3 19.9 C 0 km/h
1140 21-07-2011 12:04:02 19.5 C 8.89 g/m*3 19.5 C 0 km/h
1141 21-07-2011 12:16:02 20.4 C 9.73 g/m*3 20.4 C 0 km/h
1142 21-07-2011 12:28:02 20.6 C 9.13 g/m*3 20.6 C 0 km/h
1143 21-07-2011 12:40:03 21.9 C 9.07 g/m*3 21.9 C 0 km/h
1144 21-07-2011 12:52:02 22.3 C 8.1 g/m*3 22.3 C 0 km/h
1145 21-07-2011 13:04:02 22.8 C 8.74 g/m*3 22.8 C 0 km/h
1146 21-07-2011 13:16:01 23.7 C 8.56 g/m*3 23.7 C 0 km/h
1147 21-07-2011 13:28:01 23.8 C 8.17 g/m*3 23.8 C 0 km/h
1148 21-07-2011 13:40:02 24 C 7.83 g/m*3 24 C 0 km/h
1149 21-07-2011 13:52:02 22.2 C 7.85 g/m*3 22.2 C 0 km/h
1150 21-07-2011 14:04:02 22.4 C 7.94 g/m*3 22.4 C 0 km/h
Sensor: Nr:Datum:Temp:Abs-Feuchte:Windchill:Wind:
Aussen-T/F 1151 21-07-2011 14:16:02 21.2 C 8.52 g/m*3 21.2 C 0 km/h
1152 21-07-2011 14:28:02 18.8 C 9.02 g/m*3 18.8 C 0 km/h
1153 21-07-2011 14:40:02 16 C 10.49 g/m*3 16 C 0 km/h
1154 21-07-2011 14:52:02 15.8 C 11.04 g/m*3 15.8 C 0 km/h
1155 21-07-2011 15:04:02 16 C 11.31 g/m*3 16 C 0 km/h
1156 21-07-2011 15:16:02 16.3 C 11.52 g/m*3 16.3 C 0 km/h
1157 21-07-2011 15:28:02 17.3 C 12.23 g/m*3 17.3 C 0 km/h
1158 21-07-2011 15:40:02 18.4 C 12.43 g/m*3 18.4 C 0 km/h
1159 21-07-2011 15:52:02 21.7 C 13.16 g/m*3 21.7 C 0 km/h
1160 21-07-2011 16:04:02 23.3 C 10.45 g/m*3 23.3 C 0 km/h
1161 21-07-2011 16:16:02 22.6 C 11.65 g/m*3 22.6 C 0 km/h
1162 21-07-2011 16:28:02 20.7 C 10.08 g/m*3 20.7 C 0 km/h
1163 21-07-2011 16:40:02 18.7 C 11.21 g/m*3 18.7 C 0 km/h
1164 21-07-2011 16:52:02 17.2 C 10.84 g/m*3 17.2 C 0 km/h
1165 21-07-2011 17:04:02 16.8 C 11.15 g/m*3 16.8 C 0 km/h
1166 21-07-2011 17:16:02 16.8 C 11.44 g/m*3 16.8 C 0 km/h
1167 21-07-2011 17:28:02 17 C 11.43 g/m*3 17 C 0 km/h
1168 21-07-2011 17:40:02 17.5 C 11.63 g/m*3 17.5 C 0 km/h
1169 21-07-2011 17:52:02 17.8 C 11.54 g/m*3 17.8 C 0 km/h
1170 21-07-2011 18:04:01 17.9 C 11.45 g/m*3 17.9 C 0 km/h
1171 21-07-2011 18:16:02 18.1 C 11.28 g/m*3 18.1 C 0 km/h
1172 21-07-2011 18:28:02 18.2 C 11.19 g/m*3 18.2 C 0 km/h
1173 21-07-2011 18:40:01 17.9 C 11.3 g/m*3 17.9 C 0 km/h
1174 21-07-2011 18:52:02 18 C 11.52 g/m*3 18 C 0 km/h
1175 21-07-2011 19:04:01 19.4 C 12.01 g/m*3 19.4 C 0 km/h
Sensor: Nr:Datum:Temp:Abs-Feuchte:Windchill:Wind:
Aussen-T/F 1176 21-07-2011 19:16:01 20.2 C 11.02 g/m*3 20.2 C 0 km/h
1177 21-07-2011 19:28:01 18.8 C 11.27 g/m*3 18.8 C 0 km/h
1178 21-07-2011 19:40:02 19.1 C 11.8 g/m*3 19.1 C 0 km/h
1179 21-07-2011 19:52:02 18.4 C 11.48 g/m*3 18.4 C 0 km/h
1180 21-07-2011 20:04:02 17.8 C 11.69 g/m*3 17.8 C 0 km/h
1181 21-07-2011 20:16:02 17.5 C 11.78 g/m*3 17.5 C 0 km/h
1182 21-07-2011 20:28:03 17.1 C 11.65 g/m*3 17.1 C 0 km/h
1183 21-07-2011 20:40:01 16.4 C 11.31 g/m*3 16.4 C 0 km/h
1184 21-07-2011 20:52:02 15.7 C 11.11 g/m*3 15.7 C 0 km/h
1185 21-07-2011 21:04:01 15.1 C 10.71 g/m*3 15.1 C 0 km/h
1186 21-07-2011 21:16:02 14.7 C 10.58 g/m*3 14.7 C 0 km/h
1187 21-07-2011 21:28:02 14.6 C 10.64 g/m*3 14.6 C 0 km/h
1188 21-07-2011 21:40:02 14.7 C 10.83 g/m*3 14.7 C 0 km/h
1189 21-07-2011 21:52:02 14.7 C 10.83 g/m*3 14.7 C 0 km/h
1190 21-07-2011 22:04:02 14.1 C 10.32 g/m*3 14.1 C 0 km/h
1191 21-07-2011 22:17:04 13.9 C 10.31 g/m*3 13.9 C 0 km/h
1192 21-07-2011 22:29:04 13.8 C 10.37 g/m*3 13.8 C 0 km/h
1193 21-07-2011 22:41:04 13.7 C 10.3 g/m*3 13.7 C 0 km/h
1194 21-07-2011 22:53:04 13.8 C 10.37 g/m*3 13.8 C 0 km/h
1195 21-07-2011 23:05:04 13.8 C 10.37 g/m*3 13.8 C 0 km/h
1196 21-07-2011 23:17:04 13.8 C 10.48 g/m*3 13.8 C 0 km/h
1197 21-07-2011 23:29:04 13.9 C 10.55 g/m*3 13.9 C 0 km/h
1198 21-07-2011 23:41:04 13.7 C 10.42 g/m*3 13.7 C 0 km/h
1199 21-07-2011 23:53:04 13.7 C 10.42 g/m*3 13.7 C 0 km/h
1200 22-07-2011 00:05:04 13.8 C 10.48 g/m*3 13.8 C 0 km/h
Sensor: Nr:Datum:Temp:Abs-Feuchte:Windchill:Wind:
Aussen-T/F 1201 22-07-2011 00:17:04 13.9 C 10.55 g/m*3 13.9 C 0 km/h
1202 22-07-2011 00:29:04 14 C 10.61 g/m*3 14 C 0 km/h
1203 22-07-2011 00:41:05 14.1 C 10.68 g/m*3 14.1 C 0 km/h
1204 22-07-2011 00:53:05 14.3 C 10.81 g/m*3 14.3 C 0 km/h
1205 22-07-2011 01:05:05 14.2 C 10.75 g/m*3 14.2 C 0 km/h
1206 22-07-2011 01:17:05 14.3 C 10.81 g/m*3 14.3 C 0 km/h
1207 22-07-2011 01:29:05 14.4 C 10.88 g/m*3 14.4 C 0 km/h
1208 22-07-2011 01:41:05 14.6 C 11.01 g/m*3 14.6 C 0 km/h
1209 22-07-2011 01:53:05 14.7 C 11.08 g/m*3 14.7 C 0 km/h
1210 22-07-2011 02:05:05 14.7 C 11.08 g/m*3 14.7 C 0 km/h
1211 22-07-2011 02:17:05 14.7 C 11.08 g/m*3 14.7 C 0 km/h
1212 22-07-2011 02:29:05 14.8 C 11.02 g/m*3 14.8 C 0 km/h
1213 22-07-2011 02:41:05 14.8 C 11.02 g/m*3 14.8 C 0 km/h
1214 22-07-2011 02:53:05 14.7 C 10.95 g/m*3 14.7 C 0 km/h
1215 22-07-2011 03:05:05 14.6 C 10.89 g/m*3 14.6 C 0 km/h
1216 22-07-2011 03:17:05 14.7 C 10.95 g/m*3 14.7 C 0 km/h
1217 22-07-2011 03:29:05 14.7 C 10.95 g/m*3 14.7 C 0 km/h
1218 22-07-2011 03:41:05 14.6 C 10.89 g/m*3 14.6 C 0 km/h
1219 22-07-2011 03:53:05 14.6 C 10.76 g/m*3 14.6 C 0 km/h
1220 22-07-2011 04:05:05 14.1 C 10.44 g/m*3 14.1 C 0 km/h
1221 22-07-2011 04:17:05 14 C 10.37 g/m*3 14 C 0 km/h
1222 22-07-2011 04:29:05 14 C 10.49 g/m*3 14 C 0 km/h
1223 22-07-2011 04:41:05 14.2 C 10.62 g/m*3 14.2 C 0 km/h
1224 22-07-2011 04:53:06 14.3 C 10.69 g/m*3 14.3 C 0 km/h
1225 22-07-2011 05:05:06 14.5 C 10.82 g/m*3 14.5 C 0 km/h
Sensor: Nr:Datum:Temp:Abs-Feuchte:Windchill:Wind:
Aussen-T/F 1226 22-07-2011 05:17:06 14.5 C 10.82 g/m*3 14.5 C 0 km/h
1227 22-07-2011 05:29:06 14.5 C 10.82 g/m*3 14.5 C 0 km/h
1228 22-07-2011 05:41:06 14.4 C 10.75 g/m*3 14.4 C 0 km/h
1229 22-07-2011 05:53:06 14 C 10.37 g/m*3 14 C 0 km/h
1230 22-07-2011 06:05:06 14.2 C 10.62 g/m*3 14.2 C 0 km/h
1231 22-07-2011 06:17:06 14.4 C 10.75 g/m*3 14.4 C 0 km/h
1232 22-07-2011 06:29:06 14.5 C 10.82 g/m*3 14.5 C 0 km/h
1233 22-07-2011 06:41:06 14.8 C 10.89 g/m*3 14.8 C 0 km/h
1234 22-07-2011 06:53:06 15.2 C 10.64 g/m*3 15.2 C 0 km/h
1235 22-07-2011 07:05:03 15.1 C 10.45 g/m*3 15.1 C 0 km/h
1236 22-07-2011 07:17:03 15.5 C 10.31 g/m*3 15.5 C 0 km/h
1237 22-07-2011 07:29:03 15.5 C 9.65 g/m*3 15.5 C 0 km/h
1238 22-07-2011 07:41:03 15.4 C 9.33 g/m*3 15.4 C 0 km/h
1239 22-07-2011 07:53:01 15.5 C 9.12 g/m*3 15.5 C 0 km/h
1240 22-07-2011 08:05:02 15.4 C 8.93 g/m*3 15.4 C 0 km/h
1241 22-07-2011 08:17:01 15.4 C 8.93 g/m*3 15.4 C 0 km/h
1242 22-07-2011 08:29:01 15.7 C 8.7 g/m*3 15.7 C 0 km/h
1243 22-07-2011 08:41:01 15.2 C 8.57 g/m*3 15.2 C 0 km/h
1244 22-07-2011 08:53:01 15.1 C 8.13 g/m*3 15.1 C 0 km/h
1245 22-07-2011 09:05:02 15.2 C 7.53 g/m*3 15.2 C 0 km/h
1246 22-07-2011 09:17:01 15.6 C 7.05 g/m*3 15.6 C 0 km/h
1247 22-07-2011 09:29:01 16 C 6.81 g/m*3 16 C 0 km/h
1248 22-07-2011 09:41:01 16.4 C 6.28 g/m*3 16.4 C 0 km/h
1249 22-07-2011 09:53:02 17.6 C 6.15 g/m*3 17.6 C 0 km/h
1250 22-07-2011 10:05:02 18.6 C 6.05 g/m*3 18.6 C 0 km/h
Sensor: Nr:Datum:Temp:Abs-Feuchte:Windchill:Wind:
Aussen-T/F 1251 22-07-2011 10:17:02 18.9 C 6.48 g/m*3 18.9 C 0 km/h
1252 22-07-2011 10:29:02 18.5 C 6.33 g/m*3 18.5 C 0 km/h
1253 22-07-2011 10:41:02 17.4 C 6.52 g/m*3 17.4 C 0 km/h
1254 22-07-2011 10:53:02 18.1 C 6.8 g/m*3 18.1 C 0 km/h
1255 22-07-2011 11:05:02 17.8 C 5.92 g/m*3 17.8 C 0 km/h
1256 22-07-2011 11:17:02 19.5 C 6.38 g/m*3 19.5 C 0 km/h
1257 22-07-2011 11:29:03 19 C 6.52 g/m*3 19 C 0 km/h
1258 22-07-2011 11:41:01 18.9 C 6.64 g/m*3 18.9 C 0 km/h
1259 22-07-2011 11:53:02 18 C 6.76 g/m*3 18 C 0 km/h
1260 22-07-2011 12:05:01 18.5 C 6.65 g/m*3 18.5 C 0 km/h
1261 22-07-2011 12:17:02 19 C 6.84 g/m*3 19 C 0 km/h
1262 22-07-2011 12:29:03 19.6 C 6.75 g/m*3 19.6 C 0 km/h
1263 22-07-2011 12:41:01 19.6 C 6.75 g/m*3 19.6 C 0 km/h
1264 22-07-2011 12:53:01 20.5 C 6.76 g/m*3 20.5 C 0 km/h
1265 22-07-2011 13:05:01 18.5 C 6.8 g/m*3 18.5 C 0 km/h
1266 22-07-2011 13:17:01 19.3 C 6.97 g/m*3 19.3 C 0 km/h
1267 22-07-2011 13:29:01 18.2 C 6.53 g/m*3 18.2 C 0 km/h
1268 22-07-2011 13:41:02 18.1 C 6.95 g/m*3 18.1 C 0 km/h
1269 22-07-2011 13:53:02 18.7 C 7.2 g/m*3 18.7 C 0 km/h
1270 22-07-2011 14:05:02 18.3 C 7.19 g/m*3 18.3 C 0 km/h
1271 22-07-2011 14:17:02 17.5 C 7.16 g/m*3 17.5 C 0 km/h
1272 22-07-2011 14:29:02 17.5 C 7.31 g/m*3 17.5 C 0 km/h
1273 22-07-2011 14:41:02 18.1 C 7.11 g/m*3 18.1 C 0 km/h
1274 22-07-2011 14:53:02 18.5 C 7.28 g/m*3 18.5 C 0 km/h
1275 22-07-2011 15:05:02 17.9 C 7.33 g/m*3 17.9 C 0 km/h
Sensor: Nr:Datum:Temp:Abs-Feuchte:Windchill:Wind:
Aussen-T/F 1276 22-07-2011 15:17:02 17.8 C 6.53 g/m*3 17.8 C 0 km/h
1277 22-07-2011 15:29:02 18.1 C 6.64 g/m*3 18.1 C 0 km/h
1278 22-07-2011 15:41:02 17.4 C 6.82 g/m*3 17.4 C 0 km/h
1279 22-07-2011 15:53:02 19.7 C 7.13 g/m*3 19.7 C 0 km/h
1280 22-07-2011 16:05:02 20.8 C 6.88 g/m*3 20.8 C 0 km/h
1281 22-07-2011 16:17:03 21.1 C 6.26 g/m*3 21.1 C 0 km/h
1282 22-07-2011 16:29:03 20.7 C 6.48 g/m*3 20.7 C 0 km/h
1283 22-07-2011 16:41:03 22.8 C 6.71 g/m*3 22.8 C 0 km/h
1284 22-07-2011 16:53:02 23 C 6.58 g/m*3 23 C 0 km/h
1285 22-07-2011 17:05:03 23.2 C 6.03 g/m*3 23.2 C 0 km/h
1286 22-07-2011 17:17:02 22.1 C 5.66 g/m*3 22.1 C 0 km/h
1287 22-07-2011 17:29:02 22.3 C 6.52 g/m*3 22.3 C 0 km/h
1288 22-07-2011 17:41:03 19.8 C 6.66 g/m*3 19.8 C 0 km/h
1289 22-07-2011 17:53:02 19.6 C 7.09 g/m*3 19.6 C 0 km/h
1290 22-07-2011 18:05:02 19.4 C 6.67 g/m*3 19.4 C 0 km/h
1291 22-07-2011 18:17:01 19.4 C 6.67 g/m*3 19.4 C 0 km/h
1292 22-07-2011 18:29:01 19.4 C 6.67 g/m*3 19.4 C 0 km/h
1293 22-07-2011 18:41:02 19.4 C 6.67 g/m*3 19.4 C 0 km/h
1294 22-07-2011 18:53:02 19.4 C 6.67 g/m*3 19.4 C 0 km/h
1295 22-07-2011 19:05:02 19.4 C 6.67 g/m*3 19.4 C 0 km/h
1296 22-07-2011 19:17:02 19.4 C 6.67 g/m*3 19.4 C 0 km/h
1297 22-07-2011 19:29:02 19.4 C 6.67 g/m*3 19.4 C 0 km/h
1298 22-07-2011 19:41:02 17.9 C 6.72 g/m*3 17.9 C 0 km/h
1299 22-07-2011 19:53:02 17.8 C 6.68 g/m*3 17.8 C 0 km/h
1300 22-07-2011 20:05:02 17.8 C 6.53 g/m*3 17.8 C 0 km/h
Sensor: Nr:Datum:Temp:Abs-Feuchte:Windchill:Wind:
Aussen-T/F 1301 22-07-2011 20:17:02 17.7 C 6.64 g/m*3 17.7 C 0 km/h
1302 22-07-2011 20:29:02 17.3 C 6.48 g/m*3 17.3 C 0 km/h
1303 22-07-2011 20:41:02 16.8 C 6.86 g/m*3 16.8 C 0 km/h
1304 22-07-2011 20:53:02 16.8 C 6.72 g/m*3 16.8 C 0 km/h
1305 22-07-2011 21:05:02 16.4 C 6.98 g/m*3 16.4 C 0 km/h
1306 22-07-2011 21:17:02 16.3 C 6.94 g/m*3 16.3 C 0 km/h
1307 22-07-2011 21:29:02 16.1 C 6.85 g/m*3 16.1 C 0 km/h
1308 22-07-2011 21:41:02 16.1 C 6.72 g/m*3 16.1 C 0 km/h
1309 22-07-2011 21:53:02 16 C 6.27 g/m*3 16 C 0 km/h
1310 22-07-2011 22:06:02 16.1 C 6.31 g/m*3 16.1 C 0 km/h
1311 22-07-2011 22:18:02 16.1 C 6.31 g/m*3 16.1 C 0 km/h
1312 22-07-2011 22:30:02 16.1 C 6.31 g/m*3 16.1 C 0 km/h
1313 22-07-2011 22:42:02 15.7 C 6.56 g/m*3 15.7 C 0 km/h
1314 22-07-2011 22:54:02 15.4 C 6.57 g/m*3 15.4 C 0 km/h
1315 22-07-2011 23:06:02 15.4 C 6.44 g/m*3 15.4 C 0 km/h
1316 22-07-2011 23:18:02 15.3 C 6.4 g/m*3 15.3 C 0 km/h
1317 22-07-2011 23:30:02 15.4 C 6.44 g/m*3 15.4 C 0 km/h
1318 22-07-2011 23:42:02 15.4 C 6.44 g/m*3 15.4 C 0 km/h
1319 22-07-2011 23:54:02 15.1 C 6.58 g/m*3 15.1 C 0 km/h
1320 23-07-2011 00:06:02 15.1 C 6.58 g/m*3 15.1 C 0 km/h
1321 23-07-2011 00:18:02 14.9 C 6.63 g/m*3 14.9 C 0 km/h
1322 23-07-2011 00:30:02 14.5 C 6.59 g/m*3 14.5 C 0 km/h
1323 23-07-2011 00:42:02 14.1 C 6.55 g/m*3 14.1 C 0 km/h
1324 23-07-2011 00:54:02 13 C 6.8 g/m*3 13 C 0 km/h
1325 23-07-2011 01:06:02 13 C 6.8 g/m*3 13 C 0 km/h
Sensor: Nr:Datum:Temp:Abs-Feuchte:Windchill:Wind:
Aussen-T/F 1326 23-07-2011 01:18:02 12.4 C 7.1 g/m*3 12.4 C 0 km/h
1327 23-07-2011 01:30:02 11.8 C 7.05 g/m*3 11.8 C 0 km/h
1328 23-07-2011 01:42:02 11.8 C 7.47 g/m*3 11.8 C 0 km/h
1329 23-07-2011 01:54:02 11.7 C 7.32 g/m*3 11.7 C 0 km/h
1330 23-07-2011 02:06:02 11.4 C 7.19 g/m*3 11.4 C 0 km/h
1331 23-07-2011 02:18:03 11.4 C 7.19 g/m*3 11.4 C 0 km/h
1332 23-07-2011 02:30:03 11.4 C 7.19 g/m*3 11.4 C 0 km/h
1333 23-07-2011 02:42:03 11.4 C 7.19 g/m*3 11.4 C 0 km/h
1334 23-07-2011 02:54:03 10.3 C 7.18 g/m*3 10.3 C 0 km/h
1335 23-07-2011 03:06:03 10.5 C 7.37 g/m*3 10.5 C 0 km/h
1336 23-07-2011 03:18:03 10.7 C 7.46 g/m*3 10.7 C 0 km/h
1337 23-07-2011 03:30:03 11.2 C 7.5 g/m*3 11.2 C 0 km/h
1338 23-07-2011 03:42:03 10.8 C 7.31 g/m*3 10.8 C 0 km/h
1339 23-07-2011 03:54:03 10.4 C 7.23 g/m*3 10.4 C 0 km/h
1340 23-07-2011 04:06:03 9.9 C 7.38 g/m*3 9.9 C 0 km/h
1341 23-07-2011 04:18:03 9.4 C 7.24 g/m*3 9.4 C 0 km/h
1342 23-07-2011 04:30:03 10.2 C 7.71 g/m*3 10.2 C 0 km/h
1343 23-07-2011 04:42:03 10.2 C 7.52 g/m*3 10.2 C 0 km/h
1344 23-07-2011 04:54:03 9.7 C 7.28 g/m*3 9.7 C 0 km/h
1345 23-07-2011 05:06:03 8.9 C 7.1 g/m*3 8.9 C 0 km/h
1346 23-07-2011 05:18:03 9 C 7.32 g/m*3 9 C 0 km/h
1347 23-07-2011 05:30:03 9.8 C 7.79 g/m*3 9.8 C 0 km/h
1348 23-07-2011 05:42:03 9.6 C 7.6 g/m*3 9.6 C 0 km/h
1349 23-07-2011 05:54:03 10.4 C 7.71 g/m*3 10.4 C 0 km/h
1350 23-07-2011 06:06:03 9.9 C 7.38 g/m*3 9.9 C 0 km/h
Sensor: Nr:Datum:Temp:Abs-Feuchte:Windchill:Wind:
Aussen-T/F 1351 23-07-2011 06:18:03 9.7 C 7.38 g/m*3 9.7 C 0 km/h
1352 23-07-2011 06:30:03 9.6 C 7.42 g/m*3 9.6 C 0 km/h
1353 23-07-2011 06:42:04 10 C 7.52 g/m*3 10 C 0 km/h
1354 23-07-2011 06:54:04 10.2 C 7.33 g/m*3 10.2 C 0 km/h
1355 23-07-2011 07:06:04 10.3 C 7.28 g/m*3 10.3 C 0 km/h
1356 23-07-2011 07:18:04 10.7 C 7.37 g/m*3 10.7 C 0 km/h
1357 23-07-2011 07:30:04 11 C 7.31 g/m*3 11 C 0 km/h
1358 23-07-2011 07:42:04 11.1 C 7.35 g/m*3 11.1 C 0 km/h
1359 23-07-2011 07:54:04 11.3 C 7.34 g/m*3 11.3 C 0 km/h
1360 23-07-2011 08:06:04 12.3 C 7.17 g/m*3 12.3 C 0 km/h
1361 23-07-2011 08:18:04 12.4 C 7.21 g/m*3 12.4 C 0 km/h
1362 23-07-2011 08:30:04 12.9 C 7.33 g/m*3 12.9 C 0 km/h
1363 23-07-2011 08:42:04 13.5 C 6.9 g/m*3 13.5 C 0 km/h
1364 23-07-2011 08:54:04 13.8 C 6.91 g/m*3 13.8 C 0 km/h
1365 23-07-2011 09:06:02 13.7 C 6.75 g/m*3 13.7 C 0 km/h
1366 23-07-2011 09:18:02 13.9 C 7.07 g/m*3 13.9 C 0 km/h
1367 23-07-2011 09:30:02 14.8 C 6.71 g/m*3 14.8 C 0 km/h
1368 23-07-2011 09:42:02 14.6 C 6.76 g/m*3 14.6 C 0 km/h
1369 23-07-2011 09:54:01 15.4 C 6.31 g/m*3 15.4 C 0 km/h
1370 23-07-2011 10:06:02 15.6 C 6.25 g/m*3 15.6 C 0 km/h
1371 23-07-2011 10:18:01 15.1 C 6.06 g/m*3 15.1 C 0 km/h
1372 23-07-2011 10:30:01 15.3 C 6.27 g/m*3 15.3 C 0 km/h
1373 23-07-2011 10:42:01 16.1 C 5.89 g/m*3 16.1 C 0 km/h
1374 23-07-2011 10:54:01 16.9 C 6.18 g/m*3 16.9 C 0 km/h
1375 23-07-2011 11:06:02 15.5 C 6.74 g/m*3 15.5 C 0 km/h
Sensor: Nr:Datum:Temp:Abs-Feuchte:Windchill:Wind:
Aussen-T/F 1376 23-07-2011 11:18:02 15 C 6.8 g/m*3 15 C 0 km/h
1377 23-07-2011 11:30:02 15.9 C 6.64 g/m*3 15.9 C 0 km/h
1378 23-07-2011 11:42:01 16.2 C 6.48 g/m*3 16.2 C 0 km/h
1379 23-07-2011 11:54:02 16.9 C 6.47 g/m*3 16.9 C 0 km/h
1380 23-07-2011 12:06:01 17 C 5.79 g/m*3 17 C 0 km/h
1381 23-07-2011 12:18:02 17 C 5.79 g/m*3 17 C 0 km/h
1382 23-07-2011 12:30:02 18.2 C 5.75 g/m*3 18.2 C 0 km/h
1383 23-07-2011 12:42:01 18.3 C 5.63 g/m*3 18.3 C 0 km/h
1384 23-07-2011 12:54:02 19.1 C 5.74 g/m*3 19.1 C 0 km/h
1385 23-07-2011 13:06:01 18.6 C 5.57 g/m*3 18.6 C 0 km/h
1386 23-07-2011 13:18:01 17.5 C 5.67 g/m*3 17.5 C 0 km/h
1387 23-07-2011 13:30:01 17.4 C 5.93 g/m*3 17.4 C 0 km/h
1388 23-07-2011 13:42:01 17.9 C 5.95 g/m*3 17.9 C 0 km/h
1389 23-07-2011 13:54:02 17.6 C 6.15 g/m*3 17.6 C 0 km/h
1390 23-07-2011 14:06:02 18.5 C 6.33 g/m*3 18.5 C 0 km/h
1391 23-07-2011 14:18:02 18.1 C 6.18 g/m*3 18.1 C 0 km/h
1392 23-07-2011 14:30:02 21.6 C 5.88 g/m*3 21.6 C 0 km/h
1393 23-07-2011 14:42:02 19.3 C 5.64 g/m*3 19.3 C 0 km/h
1394 23-07-2011 14:54:01 18.3 C 5.63 g/m*3 18.3 C 0 km/h
1395 23-07-2011 15:06:03 20.3 C 5.8 g/m*3 20.3 C 0 km/h
1396 23-07-2011 15:18:01 19.4 C 5.67 g/m*3 19.4 C 0 km/h
1397 23-07-2011 15:30:01 18.9 C 5.67 g/m*3 18.9 C 0 km/h
1398 23-07-2011 15:42:02 18.4 C 6.45 g/m*3 18.4 C 0 km/h
1399 23-07-2011 15:54:02 17.5 C 6.86 g/m*3 17.5 C 0 km/h
1400 23-07-2011 16:06:02 17.4 C 6.97 g/m*3 17.4 C 0 km/h
Sensor: Nr:Datum:Temp:Abs-Feuchte:Windchill:Wind:
Aussen-T/F 1401 23-07-2011 16:18:01 17.1 C 6.99 g/m*3 17.1 C 0 km/h
1402 23-07-2011 16:30:01 16.3 C 6.94 g/m*3 16.3 C 0 km/h
1403 23-07-2011 16:42:02 16.8 C 7.01 g/m*3 16.8 C 0 km/h
1404 23-07-2011 16:54:02 16 C 6.81 g/m*3 16 C 0 km/h
1405 23-07-2011 17:06:02 15.6 C 7.18 g/m*3 15.6 C 0 km/h
1406 23-07-2011 17:18:02 16 C 7.22 g/m*3 16 C 0 km/h
1407 23-07-2011 17:30:02 16 C 7.22 g/m*3 16 C 0 km/h
1408 23-07-2011 17:42:02 16.7 C 7.11 g/m*3 16.7 C 0 km/h
1409 23-07-2011 17:54:02 16.7 C 7.11 g/m*3 16.7 C 0 km/h
1410 23-07-2011 18:06:02 16.7 C 7.11 g/m*3 16.7 C 0 km/h
1411 23-07-2011 18:18:02 16.7 C 7.11 g/m*3 16.7 C 0 km/h
1412 23-07-2011 18:30:02 16.7 C 7.11 g/m*3 16.7 C 0 km/h
1413 23-07-2011 18:42:02 16.7 C 7.11 g/m*3 16.7 C 0 km/h
1414 23-07-2011 18:54:01 16.7 C 7.11 g/m*3 16.7 C 0 km/h
1415 23-07-2011 19:06:01 16.7 C 7.11 g/m*3 16.7 C 0 km/h
1416 23-07-2011 19:18:02 16.7 C 7.11 g/m*3 16.7 C 0 km/h
1417 23-07-2011 19:30:02 16.7 C 7.11 g/m*3 16.7 C 0 km/h
1418 23-07-2011 19:42:01 16.7 C 7.11 g/m*3 16.7 C 0 km/h
1419 23-07-2011 19:54:02 13.4 C 9.53 g/m*3 13.4 C 0 km/h
1420 23-07-2011 20:06:02 13 C 9.3 g/m*3 13 C 0 km/h
1421 23-07-2011 20:18:03 12.9 C 9.35 g/m*3 12.9 C 0 km/h
1422 23-07-2011 20:30:03 12.5 C 9.24 g/m*3 12.5 C 0 km/h
1423 23-07-2011 20:42:02 12.4 C 9.18 g/m*3 12.4 C 0 km/h
1424 23-07-2011 20:54:03 12.4 C 9.18 g/m*3 12.4 C 0 km/h
1425 23-07-2011 21:06:02 12.3 C 9.23 g/m*3 12.3 C 0 km/h
Sensor: Nr:Datum:Temp:Abs-Feuchte:Windchill:Wind:
Aussen-T/F 1426 23-07-2011 21:18:02 12.2 C 9.17 g/m*3 12.2 C 0 km/h
1427 23-07-2011 21:30:03 12.3 C 9.34 g/m*3 12.3 C 0 km/h
1428 23-07-2011 21:42:02 12.2 C 9.17 g/m*3 12.2 C 0 km/h
1429 23-07-2011 21:54:02 12.2 C 9.17 g/m*3 12.2 C 0 km/h
1430 23-07-2011 22:06:02 11.8 C 8.95 g/m*3 11.8 C 0 km/h
1431 23-07-2011 22:18:01 11.8 C 9.05 g/m*3 11.8 C 0 km/h
1432 23-07-2011 22:30:01 11.5 C 8.88 g/m*3 11.5 C 0 km/h
1433 23-07-2011 22:42:02 11.3 C 8.77 g/m*3 11.3 C 0 km/h
1434 23-07-2011 22:54:02 11.1 C 8.66 g/m*3 11.1 C 0 km/h
1435 23-07-2011 23:06:02 11.1 C 8.66 g/m*3 11.1 C 0 km/h
1436 23-07-2011 23:18:02 11.1 C 8.66 g/m*3 11.1 C 0 km/h
1437 23-07-2011 23:30:02 11.2 C 8.72 g/m*3 11.2 C 0 km/h
1438 23-07-2011 23:42:02 11.2 C 8.82 g/m*3 11.2 C 0 km/h
1439 23-07-2011 23:54:02 11.1 C 8.76 g/m*3 11.1 C 0 km/h
1440 24-07-2011 00:06:02 11.1 C 8.76 g/m*3 11.1 C 0 km/h
1441 24-07-2011 00:18:02 11.2 C 8.72 g/m*3 11.2 C 0 km/h
1442 24-07-2011 00:30:02 11.3 C 8.77 g/m*3 11.3 C 0 km/h
1443 24-07-2011 00:42:02 11.2 C 8.72 g/m*3 11.2 C 0 km/h
1444 24-07-2011 00:54:02 11.2 C 8.72 g/m*3 11.2 C 0 km/h
1445 24-07-2011 01:06:01 11.2 C 8.72 g/m*3 11.2 C 0 km/h
1446 24-07-2011 01:18:02 11.2 C 8.72 g/m*3 11.2 C 0 km/h
1447 24-07-2011 01:30:02 11.1 C 8.66 g/m*3 11.1 C 0 km/h
1448 24-07-2011 01:42:02 11.1 C 8.66 g/m*3 11.1 C 0 km/h
1449 24-07-2011 01:54:02 11.3 C 8.77 g/m*3 11.3 C 0 km/h
1450 24-07-2011 02:06:03 11.3 C 8.57 g/m*3 11.3 C 0 km/h
Sensor: Nr:Datum:Temp:Abs-Feuchte:Windchill:Wind:
Aussen-T/F 1451 24-07-2011 02:18:02 11.3 C 8.36 g/m*3 11.3 C 0 km/h
1452 24-07-2011 02:30:02 11 C 8.01 g/m*3 11 C 0 km/h
1453 24-07-2011 02:42:02 11 C 7.91 g/m*3 11 C 0 km/h
1454 24-07-2011 02:55:03 10.8 C 7.81 g/m*3 10.8 C 0 km/h
1455 24-07-2011 03:07:03 10.7 C 7.76 g/m*3 10.7 C 0 km/h
1456 24-07-2011 03:19:03 10.2 C 7.52 g/m*3 10.2 C 0 km/h
1457 24-07-2011 03:31:02 10.2 C 7.52 g/m*3 10.2 C 0 km/h
1458 24-07-2011 03:43:02 10.2 C 7.61 g/m*3 10.2 C 0 km/h
1459 24-07-2011 03:55:02 10.5 C 7.66 g/m*3 10.5 C 0 km/h
1460 24-07-2011 04:07:01 10.9 C 7.46 g/m*3 10.9 C 0 km/h
1461 24-07-2011 04:19:02 10.9 C 7.36 g/m*3 10.9 C 0 km/h
1462 24-07-2011 04:31:01 10.9 C 7.36 g/m*3 10.9 C 0 km/h
1463 24-07-2011 04:43:01 10.9 C 7.36 g/m*3 10.9 C 0 km/h
1464 24-07-2011 04:55:02 11.3 C 6.94 g/m*3 11.3 C 0 km/h
1465 24-07-2011 05:07:01 11.3 C 6.94 g/m*3 11.3 C 0 km/h
1466 24-07-2011 05:19:01 10.5 C 7.27 g/m*3 10.5 C 0 km/h
1467 24-07-2011 05:31:02 10.5 C 7.27 g/m*3 10.5 C 0 km/h
1468 24-07-2011 05:43:02 10.5 C 7.27 g/m*3 10.5 C 0 km/h
1469 24-07-2011 05:55:02 10 C 7.42 g/m*3 10 C 0 km/h
1470 24-07-2011 06:07:01 10 C 7.42 g/m*3 10 C 0 km/h
1471 24-07-2011 06:19:02 10 C 7.42 g/m*3 10 C 0 km/h
1472 24-07-2011 06:31:02 10 C 7.42 g/m*3 10 C 0 km/h
1473 24-07-2011 06:43:02 10 C 7.42 g/m*3 10 C 0 km/h
1474 24-07-2011 06:55:02 10 C 7.42 g/m*3 10 C 0 km/h
1475 24-07-2011 07:07:03 10 C 7.42 g/m*3 10 C 0 km/h
Sensor: Nr:Datum:Temp:Abs-Feuchte:Windchill:Wind:
Aussen-T/F 1476 24-07-2011 07:19:02 10 C 7.42 g/m*3 10 C 0 km/h
1477 24-07-2011 07:31:02 10 C 7.42 g/m*3 10 C 0 km/h
1478 24-07-2011 07:43:03 10 C 7.42 g/m*3 10 C 0 km/h
1479 24-07-2011 07:55:01 10 C 7.42 g/m*3 10 C 0 km/h
1480 24-07-2011 08:07:02 9.9 C 8.22 g/m*3 9.9 C 0 km/h
1481 24-07-2011 08:19:01 9.9 C 8.22 g/m*3 9.9 C 0 km/h
1482 24-07-2011 08:31:01 9.9 C 8.22 g/m*3 9.9 C 0 km/h
1483 24-07-2011 08:43:01 9.9 C 8.22 g/m*3 9.9 C 0 km/h
1484 24-07-2011 08:55:01 9.9 C 8.22 g/m*3 9.9 C 0 km/h
1485 24-07-2011 09:07:02 9.9 C 8.22 g/m*3 9.9 C 0 km/h
1486 24-07-2011 09:19:01 9.9 C 8.22 g/m*3 9.9 C 0 km/h
1487 24-07-2011 09:31:02 9.9 C 8.22 g/m*3 9.9 C 0 km/h
1488 24-07-2011 09:43:03 10.8 C 8.5 g/m*3 10.8 C 0 km/h
1489 24-07-2011 09:55:02 10.9 C 8.45 g/m*3 10.9 C 0 km/h
1490 24-07-2011 10:07:02 11 C 8.51 g/m*3 11 C 0 km/h
1491 24-07-2011 10:19:01 11.4 C 8.62 g/m*3 11.4 C 0 km/h
1492 24-07-2011 10:31:02 11.5 C 8.68 g/m*3 11.5 C 0 km/h
1493 24-07-2011 10:43:02 11.8 C 8.63 g/m*3 11.8 C 0 km/h
1494 24-07-2011 10:55:02 12.1 C 8.47 g/m*3 12.1 C 0 km/h
1495 24-07-2011 11:07:02 12.2 C 8.52 g/m*3 12.2 C 0 km/h
1496 24-07-2011 11:19:01 12.4 C 8.41 g/m*3 12.4 C 0 km/h
1497 24-07-2011 11:31:02 12.5 C 8.36 g/m*3 12.5 C 0 km/h
1498 24-07-2011 11:43:02 12.5 C 8.47 g/m*3 12.5 C 0 km/h
1499 24-07-2011 11:55:01 12.9 C 8.57 g/m*3 12.9 C 0 km/h
1500 24-07-2011 12:07:02 13.2 C 8.61 g/m*3 13.2 C 0 km/h
Sensor: Nr:Datum:Temp:Abs-Feuchte:Windchill:Wind:
Aussen-T/F 1501 24-07-2011 12:19:02 13.2 C 8.61 g/m*3 13.2 C 0 km/h
1502 24-07-2011 12:31:01 13.2 C 8.61 g/m*3 13.2 C 0 km/h
1503 24-07-2011 12:43:01 13.2 C 8.61 g/m*3 13.2 C 0 km/h
1504 24-07-2011 12:55:02 14.2 C 8.18 g/m*3 14.2 C 0 km/h
1505 24-07-2011 13:07:01 13.9 C 8.03 g/m*3 13.9 C 0 km/h
1506 24-07-2011 13:19:02 13.9 C 8.03 g/m*3 13.9 C 0 km/h
1507 24-07-2011 13:31:01 15.6 C 7.85 g/m*3 15.6 C 0 km/h
1508 24-07-2011 13:43:01 15 C 7.69 g/m*3 15 C 0 km/h
1509 24-07-2011 13:55:02 15.1 C 7.61 g/m*3 15.1 C 0 km/h
1510 24-07-2011 14:07:02 15.3 C 7.7 g/m*3 15.3 C 0 km/h
1511 24-07-2011 14:19:02 15.3 C 7.7 g/m*3 15.3 C 0 km/h
1512 24-07-2011 14:31:03 15.3 C 7.7 g/m*3 15.3 C 0 km/h
1513 24-07-2011 14:43:03 15.3 C 7.7 g/m*3 15.3 C 0 km/h
1514 24-07-2011 14:55:02 15.3 C 7.7 g/m*3 15.3 C 0 km/h
1515 24-07-2011 15:07:01 15.3 C 7.7 g/m*3 15.3 C 0 km/h
1516 24-07-2011 15:19:02 15.3 C 7.7 g/m*3 15.3 C 0 km/h
1517 24-07-2011 15:31:02 15.3 C 7.7 g/m*3 15.3 C 0 km/h
1518 24-07-2011 15:43:02 15.3 C 7.7 g/m*3 15.3 C 0 km/h
1519 24-07-2011 15:55:02 18.1 C 7.42 g/m*3 18.1 C 0 km/h
1520 24-07-2011 16:07:02 18.1 C 7.42 g/m*3 18.1 C 0 km/h
1521 24-07-2011 16:19:02 17.7 C 7.54 g/m*3 17.7 C 0 km/h
1522 24-07-2011 16:31:02 17.8 C 7.89 g/m*3 17.8 C 0 km/h
1523 24-07-2011 16:43:03 17.1 C 7.42 g/m*3 17.1 C 0 km/h
1524 24-07-2011 16:55:01 17.1 C 7.42 g/m*3 17.1 C 0 km/h
1525 24-07-2011 17:07:02 17.1 C 7.42 g/m*3 17.1 C 0 km/h
Sensor: Nr:Datum:Temp:Abs-Feuchte:Windchill:Wind:
Aussen-T/F 1526 24-07-2011 17:19:01 16.2 C 8.14 g/m*3 16.2 C 0 km/h
1527 24-07-2011 17:31:01 16 C 8.31 g/m*3 16 C 0 km/h
1528 24-07-2011 17:43:01 16 C 8.31 g/m*3 16 C 0 km/h
1529 24-07-2011 17:55:02 15.8 C 8.21 g/m*3 15.8 C 0 km/h
1530 24-07-2011 18:07:02 15.3 C 8.36 g/m*3 15.3 C 0 km/h
1531 24-07-2011 18:19:01 15.7 C 8.43 g/m*3 15.7 C 0 km/h
1532 24-07-2011 18:31:02 15.4 C 8.41 g/m*3 15.4 C 0 km/h
1533 24-07-2011 18:43:02 15.1 C 7.74 g/m*3 15.1 C 0 km/h
1534 24-07-2011 18:55:02 15 C 8.21 g/m*3 15 C 0 km/h
1535 24-07-2011 19:07:02 14.7 C 8.69 g/m*3 14.7 C 0 km/h
1536 24-07-2011 19:19:01 14.7 C 8.69 g/m*3 14.7 C 0 km/h
1537 24-07-2011 19:31:02 14.1 C 9.59 g/m*3 14.1 C 0 km/h
1538 24-07-2011 19:43:02 14 C 9.65 g/m*3 14 C 0 km/h
1539 24-07-2011 19:55:02 14.1 C 9.83 g/m*3 14.1 C 0 km/h
1540 24-07-2011 20:07:02 13.9 C 9.83 g/m*3 13.9 C 0 km/h
1541 24-07-2011 20:19:02 13.6 C 9.65 g/m*3 13.6 C 0 km/h
1542 24-07-2011 20:31:02 13.5 C 9.71 g/m*3 13.5 C 0 km/h
1543 24-07-2011 20:43:02 13.1 C 9.59 g/m*3 13.1 C 0 km/h
1544 24-07-2011 20:55:02 13.3 C 9.7 g/m*3 13.3 C 0 km/h
1545 24-07-2011 21:07:02 13.2 C 9.64 g/m*3 13.2 C 0 km/h
1546 24-07-2011 21:19:02 13.1 C 9.59 g/m*3 13.1 C 0 km/h
1547 24-07-2011 21:31:01 13.1 C 9.59 g/m*3 13.1 C 0 km/h
1548 24-07-2011 21:43:01 13.1 C 9.59 g/m*3 13.1 C 0 km/h
1549 24-07-2011 21:55:02 12.5 C 9.46 g/m*3 12.5 C 0 km/h
1550 24-07-2011 22:08:02 12.4 C 9.51 g/m*3 12.4 C 0 km/h
Sensor: Nr:Datum:Temp:Abs-Feuchte:Windchill:Wind:
Aussen-T/F 1551 24-07-2011 22:20:02 12.2 C 9.39 g/m*3 12.2 C 0 km/h
1552 24-07-2011 22:32:02 12.1 C 9.33 g/m*3 12.1 C 0 km/h
1553 24-07-2011 22:44:02 12.1 C 9.33 g/m*3 12.1 C 0 km/h
1554 24-07-2011 22:56:02 12.1 C 9.44 g/m*3 12.1 C 0 km/h
1555 24-07-2011 23:08:02 12.3 C 9.56 g/m*3 12.3 C 0 km/h
1556 24-07-2011 23:20:02 12.3 C 9.56 g/m*3 12.3 C 0 km/h
1557 24-07-2011 23:32:02 12.4 C 9.62 g/m*3 12.4 C 0 km/h
1558 24-07-2011 23:44:02 12.1 C 9.44 g/m*3 12.1 C 0 km/h
1559 24-07-2011 23:56:02 12 C 9.38 g/m*3 12 C 0 km/h
1560 25-07-2011 00:08:02 12 C 9.38 g/m*3 12 C 0 km/h
1561 25-07-2011 00:20:02 12 C 9.38 g/m*3 12 C 0 km/h
1562 25-07-2011 00:32:02 11.8 C 9.37 g/m*3 11.8 C 0 km/h
1563 25-07-2011 00:44:03 11.7 C 9.31 g/m*3 11.7 C 0 km/h
1564 25-07-2011 00:56:03 11.6 C 9.25 g/m*3 11.6 C 0 km/h
1565 25-07-2011 01:08:03 11.7 C 9.31 g/m*3 11.7 C 0 km/h
1566 25-07-2011 01:20:03 11.8 C 9.37 g/m*3 11.8 C 0 km/h
1567 25-07-2011 01:32:03 11.6 C 9.25 g/m*3 11.6 C 0 km/h
1568 25-07-2011 01:44:03 11.6 C 9.25 g/m*3 11.6 C 0 km/h
1569 25-07-2011 01:56:03 11.5 C 9.19 g/m*3 11.5 C 0 km/h
1570 25-07-2011 02:08:03 11.5 C 9.19 g/m*3 11.5 C 0 km/h
1571 25-07-2011 02:20:03 11.4 C 9.14 g/m*3 11.4 C 0 km/h
1572 25-07-2011 02:32:03 11.8 C 9.37 g/m*3 11.8 C 0 km/h
1573 25-07-2011 02:44:03 11.5 C 9.3 g/m*3 11.5 C 0 km/h
1574 25-07-2011 02:56:03 11.4 C 9.14 g/m*3 11.4 C 0 km/h
1575 25-07-2011 03:08:03 11.4 C 9.24 g/m*3 11.4 C 0 km/h
Sensor: Nr:Datum:Temp:Abs-Feuchte:Windchill:Wind:
Aussen-T/F 1576 25-07-2011 03:20:03 11.5 C 9.3 g/m*3 11.5 C 0 km/h
1577 25-07-2011 03:32:03 11.5 C 9.3 g/m*3 11.5 C 0 km/h
1578 25-07-2011 03:44:03 11.5 C 9.3 g/m*3 11.5 C 0 km/h
1579 25-07-2011 03:56:03 11.3 C 9.18 g/m*3 11.3 C 0 km/h
1580 25-07-2011 04:08:03 10.8 C 8.9 g/m*3 10.8 C 0 km/h
1581 25-07-2011 04:20:03 10.6 C 8.78 g/m*3 10.6 C 0 km/h
1582 25-07-2011 04:32:03 10.2 C 8.47 g/m*3 10.2 C 0 km/h
1583 25-07-2011 04:44:03 10 C 8.36 g/m*3 10 C 0 km/h
1584 25-07-2011 04:56:03 9.8 C 8.44 g/m*3 9.8 C 0 km/h
1585 25-07-2011 05:08:03 9.8 C 8.44 g/m*3 9.8 C 0 km/h
1586 25-07-2011 05:20:04 10.3 C 8.62 g/m*3 10.3 C 0 km/h
1587 25-07-2011 05:32:04 10.2 C 8.56 g/m*3 10.2 C 0 km/h
1588 25-07-2011 05:44:04 10 C 8.46 g/m*3 10 C 0 km/h
1589 25-07-2011 05:56:04 9.9 C 8.5 g/m*3 9.9 C 0 km/h
1590 25-07-2011 06:08:04 9.6 C 8.34 g/m*3 9.6 C 0 km/h
1591 25-07-2011 06:20:04 9.4 C 8.23 g/m*3 9.4 C 0 km/h
1592 25-07-2011 06:32:04 9.2 C 8.13 g/m*3 9.2 C 0 km/h
1593 25-07-2011 06:44:04 9.2 C 8.13 g/m*3 9.2 C 0 km/h
1594 25-07-2011 06:56:04 8.9 C 8.06 g/m*3 8.9 C 0 km/h
1595 25-07-2011 07:08:02 9.4 C 8.23 g/m*3 9.4 C 0 km/h
1596 25-07-2011 07:20:01 9.4 C 8.23 g/m*3 9.4 C 0 km/h
1597 25-07-2011 07:32:02 9.4 C 8.23 g/m*3 9.4 C 0 km/h
1598 25-07-2011 07:44:02 9.4 C 8.23 g/m*3 9.4 C 0 km/h
1599 25-07-2011 07:56:02 9.4 C 8.23 g/m*3 9.4 C 0 km/h
1600 25-07-2011 08:08:02 9.4 C 8.23 g/m*3 9.4 C 0 km/h
Sensor: Nr:Datum:Temp:Abs-Feuchte:Windchill:Wind:
Aussen-T/F 1601 25-07-2011 08:20:02 11 C 8.81 g/m*3 11 C 0 km/h
1602 25-07-2011 08:32:02 11 C 8.81 g/m*3 11 C 0 km/h
1603 25-07-2011 08:44:02 11 C 8.81 g/m*3 11 C 0 km/h
1604 25-07-2011 08:56:02 11.2 C 8.92 g/m*3 11.2 C 0 km/h
1605 25-07-2011 09:08:02 11.4 C 9.03 g/m*3 11.4 C 0 km/h
1606 25-07-2011 09:20:03 11.7 C 9.2 g/m*3 11.7 C 0 km/h
1607 25-07-2011 09:32:02 12 C 9.27 g/m*3 12 C 0 km/h
1608 25-07-2011 09:44:02 12.3 C 9.45 g/m*3 12.3 C 0 km/h
1609 25-07-2011 09:56:02 12.7 C 9.57 g/m*3 12.7 C 0 km/h
1610 25-07-2011 10:08:02 13.4 C 9.76 g/m*3 13.4 C 0 km/h
1611 25-07-2011 10:20:03 14.7 C 10.2 g/m*3 14.7 C 0 km/h
1612 25-07-2011 10:32:02 15 C 9.23 g/m*3 15 C 0 km/h
1613 25-07-2011 10:44:02 15 C 9.23 g/m*3 15 C 0 km/h
1614 25-07-2011 10:56:02 15.5 C 9.12 g/m*3 15.5 C 0 km/h
1615 25-07-2011 11:08:02 16.3 C 8.32 g/m*3 16.3 C 0 km/h
1616 25-07-2011 11:20:02 17.1 C 6.99 g/m*3 17.1 C 0 km/h
1617 25-07-2011 11:32:03 17.5 C 7.75 g/m*3 17.5 C 0 km/h
1618 25-07-2011 11:44:03 18.3 C 5.94 g/m*3 18.3 C 0 km/h
1619 25-07-2011 11:56:02 18.7 C 5.92 g/m*3 18.7 C 0 km/h
1620 25-07-2011 12:08:01 19.1 C 5.74 g/m*3 19.1 C 0 km/h
1621 25-07-2011 12:20:02 19.5 C 5.87 g/m*3 19.5 C 0 km/h
1622 25-07-2011 12:32:02 19.6 C 5.74 g/m*3 19.6 C 0 km/h
1623 25-07-2011 12:44:02 19.5 C 6.21 g/m*3 19.5 C 0 km/h
1624 25-07-2011 12:56:02 20.4 C 6.19 g/m*3 20.4 C 0 km/h
1625 25-07-2011 13:08:03 21.3 C 5.22 g/m*3 21.3 C 0 km/h
Sensor: Nr:Datum:Temp:Abs-Feuchte:Windchill:Wind:
Aussen-T/F 1626 25-07-2011 13:20:02 21.6 C 4.93 g/m*3 21.6 C 0 km/h
1627 25-07-2011 13:32:03 22.5 C 4.59 g/m*3 22.5 C 0 km/h
1628 25-07-2011 13:44:03 27.2 C 5.2 g/m*3 27.2 C 0 km/h
1629 25-07-2011 13:56:02 29.3 C 5.84 g/m*3 29.3 C 0 km/h
1630 25-07-2011 14:08:01 26.1 C 4.9 g/m*3 26.1 C 0 km/h
1631 25-07-2011 14:20:02 24.4 C 4.45 g/m*3 24.4 C 0 km/h
1632 25-07-2011 14:32:02 23.9 C 4.54 g/m*3 23.9 C 0 km/h
1633 25-07-2011 14:44:02 27.9 C 5.41 g/m*3 27.9 C 0 km/h
1634 25-07-2011 14:56:02 23 C 6.78 g/m*3 23 C 0 km/h
1635 25-07-2011 15:08:01 23.1 C 6.82 g/m*3 23.1 C 0 km/h
1636 25-07-2011 15:20:01 29.4 C 5.87 g/m*3 29.4 C 0 km/h
1637 25-07-2011 15:32:02 28 C 5.44 g/m*3 28 C 0 km/h
1638 25-07-2011 15:44:02 27.3 C 5.23 g/m*3 27.3 C 0 km/h
1639 25-07-2011 15:56:02 24.3 C 4.43 g/m*3 24.3 C 0 km/h
1640 25-07-2011 16:08:02 26.2 C 7.14 g/m*3 26.2 C 0 km/h
1641 25-07-2011 16:20:02 23.9 C 7.36 g/m*3 23.9 C 0 km/h
1642 25-07-2011 16:32:02 22.7 C 7.48 g/m*3 22.7 C 0 km/h
1643 25-07-2011 16:44:02 22.1 C 8 g/m*3 22.1 C 0 km/h
1644 25-07-2011 16:56:01 22.8 C 8.13 g/m*3 22.8 C 0 km/h
1645 25-07-2011 17:08:02 22.7 C 8.28 g/m*3 22.7 C 0 km/h
1646 25-07-2011 17:20:01 24.8 C 6.83 g/m*3 24.8 C 0 km/h
1647 25-07-2011 17:32:02 24.5 C 5.15 g/m*3 24.5 C 0 km/h
1648 25-07-2011 17:44:02 27.9 C 5.41 g/m*3 27.9 C 0 km/h
1649 25-07-2011 17:56:02 30.1 C 6.1 g/m*3 30.1 C 0 km/h
1650 25-07-2011 18:08:02 24 C 5.66 g/m*3 24 C 0 km/h
Sensor: Nr:Datum:Temp:Abs-Feuchte:Windchill:Wind:
Aussen-T/F 1651 25-07-2011 18:20:01 21.7 C 8.01 g/m*3 21.7 C 0 km/h
1652 25-07-2011 18:32:02 21.2 C 8.15 g/m*3 21.2 C 0 km/h
1653 25-07-2011 18:44:02 23.7 C 6.42 g/m*3 23.7 C 0 km/h
1654 25-07-2011 18:56:02 22.3 C 8.29 g/m*3 22.3 C 0 km/h
1655 25-07-2011 19:08:02 23.7 C 8.56 g/m*3 23.7 C 0 km/h
1656 25-07-2011 19:20:01 20.6 C 8.77 g/m*3 20.6 C 0 km/h
1657 25-07-2011 19:32:02 21.7 C 8.39 g/m*3 21.7 C 0 km/h
1658 25-07-2011 19:44:02 20.1 C 8.69 g/m*3 20.1 C 0 km/h
1659 25-07-2011 19:56:02 19 C 8.47 g/m*3 19 C 0 km/h
1660 25-07-2011 20:08:02 18.2 C 8.55 g/m*3 18.2 C 0 km/h
1661 25-07-2011 20:20:02 17.3 C 8.69 g/m*3 17.3 C 0 km/h
1662 25-07-2011 20:32:02 16.9 C 8.49 g/m*3 16.9 C 0 km/h
1663 25-07-2011 20:44:02 17 C 8.1 g/m*3 17 C 0 km/h
1664 25-07-2011 20:56:02 16.7 C 8.53 g/m*3 16.7 C 0 km/h
1665 25-07-2011 21:08:02 16.2 C 8.27 g/m*3 16.2 C 0 km/h
1666 25-07-2011 21:20:02 16.1 C 8.36 g/m*3 16.1 C 0 km/h
1667 25-07-2011 21:32:02 16.1 C 8.64 g/m*3 16.1 C 0 km/h
1668 25-07-2011 21:44:02 16 C 8.58 g/m*3 16 C 0 km/h
1669 25-07-2011 21:56:02 16 C 8.58 g/m*3 16 C 0 km/h
1670 25-07-2011 22:08:02 15.9 C 8.67 g/m*3 15.9 C 0 km/h
1671 25-07-2011 22:21:03 15.8 C 8.62 g/m*3 15.8 C 0 km/h
1672 25-07-2011 22:33:03 15.9 C 8.67 g/m*3 15.9 C 0 km/h
1673 25-07-2011 22:45:03 15.9 C 8.53 g/m*3 15.9 C 0 km/h
1674 25-07-2011 22:57:04 15.7 C 8.56 g/m*3 15.7 C 0 km/h
1675 25-07-2011 23:09:04 15.5 C 8.99 g/m*3 15.5 C 0 km/h
Sensor: Nr:Datum:Temp:Abs-Feuchte:Windchill:Wind:
Aussen-T/F 1676 25-07-2011 23:21:04 15.3 C 9.01 g/m*3 15.3 C 0 km/h
1677 25-07-2011 23:33:04 15.2 C 9.09 g/m*3 15.2 C 0 km/h
1678 25-07-2011 23:45:04 15.2 C 9.22 g/m*3 15.2 C 0 km/h
1679 25-07-2011 23:57:04 15.1 C 9.16 g/m*3 15.1 C 0 km/h

Legende:
   Min
   Max


Maximal/Minimal-Werte vom 12.07.2011 - 25.07.2011

Sensor Min Max Avg
Temp
(Aussen-T/F)
8.2 °C
16-07-2011  05:47:03
33.4 °C
12-07-2011  14:07:02
16.62 °C
Abs-Feuchte
(Aussen-T/F)
4.16 g/m*3
15-07-2011  19:34:02
13.71 g/m*3
12-07-2011  19:31:02
8.44 g/m*3
Windchill
(Aussen-T/F)
8.2 C
16-07-2011  05:47:03
33.4 C
12-07-2011  14:07:02
16.61 C

Die Daten stammen von einer Davis Vantage Pro 2 Wetter-Station und werden unter Linux mit der Software wview2wettercgi und aufbereitet. Alle Angaben erfolgen ohne Gewähr für ihre Vollständigkeit oder Richtigkeit.
Kontakt: Rainer Krienke krienke@uni-koblenz.de . Meine Webseiten an der Uni Koblenz oder privat.
Version: $Revision: 0.78 $